KLM195 EHAM-SMJP
Flight info
| Callsign | KLM195 |
|---|---|
| Flight time | 8h 59m |
| Altitude | 24000 |
| Route | IDRID L980 TRIPO/N0491F280 L980 MANGO DCT ENHAQ DCT GAJIT/N0494F320 DCT BAPHU DCT LESLU/M085F320 DCT SOMAX/M085F340 DCT 47N020W 38N030W 34N035W 30N040W 25N045W/M085F360 DCT MUNTR/N0498F360 DCT 0920N05400W DCT TODOL |
| Aircraft | B77W/H-SDE2E3FGHIJ3J5P2RWXYZ/LB1D1 |
Departure
| Time | 2026-04-11 06:32 |
|---|---|
| Airport | Amsterdam Airport Schiphol (EHAM) |
Arrival
| Time | 2026-04-11 15:31 |
|---|---|
| Airport | Johan Adolf Pengel International Airport (SMJP) |
| Time | Latitude | Longitude | Altitude | Speed | Heading |
|---|---|---|---|---|---|
| 2026-04-11 06:06 | 52.31264 | 4.76056 | 31 ft | 0 kts | 109° |
| 2026-04-11 06:23 | 52.31264 | 4.76053 | 3 ft | 2 kts | 109° |
| 2026-04-11 06:23 | 52.31273 | 4.76013 | 5 ft | 4 kts | 111° |
| 2026-04-11 06:23 | 52.31280 | 4.75986 | 6 ft | 4 kts | 104° |
| 2026-04-11 06:23 | 52.31281 | 4.75950 | 6 ft | 4 kts | 43° |
| 2026-04-11 06:24 | 52.31265 | 4.75937 | 7 ft | 4 kts | 9° |
| 2026-04-11 06:24 | 52.31239 | 4.75938 | 6 ft | 4 kts | 353° |
| 2026-04-11 06:24 | 52.31229 | 4.75940 | 5 ft | 0 kts | 357° |
| 2026-04-11 06:26 | 52.31266 | 4.75936 | 3 ft | 11 kts | 356° |
| 2026-04-11 06:26 | 52.31345 | 4.75929 | 3 ft | 11 kts | 356° |
| 2026-04-11 06:26 | 52.31421 | 4.75943 | 4 ft | 11 kts | 34° |
| 2026-04-11 06:27 | 52.31448 | 4.76063 | 4 ft | 12 kts | 84° |
| 2026-04-11 06:27 | 52.31456 | 4.76257 | 4 ft | 23 kts | 86° |
| 2026-04-11 06:27 | 52.31466 | 4.76527 | 4 ft | 24 kts | 87° |
| 2026-04-11 06:27 | 52.31473 | 4.76778 | 4 ft | 22 kts | 88° |
| 2026-04-11 06:28 | 52.31481 | 4.77018 | 4 ft | 20 kts | 86° |
| 2026-04-11 06:28 | 52.31508 | 4.77173 | 4 ft | 14 kts | 38° |
| 2026-04-11 06:28 | 52.31572 | 4.77285 | 3 ft | 14 kts | 59° |
| 2026-04-11 06:28 | 52.31623 | 4.77417 | 3 ft | 14 kts | 57° |
| 2026-04-11 06:29 | 52.31676 | 4.77549 | 3 ft | 14 kts | 57° |
| 2026-04-11 06:29 | 52.31739 | 4.77667 | 3 ft | 14 kts | 30° |
| 2026-04-11 06:29 | 52.31834 | 4.77694 | 2 ft | 14 kts | 4° |
| 2026-04-11 06:29 | 52.31930 | 4.77704 | 4 ft | 14 kts | 4° |
| 2026-04-11 06:30 | 52.32021 | 4.77750 | 4 ft | 14 kts | 37° |
| 2026-04-11 06:30 | 52.32095 | 4.77851 | 4 ft | 14 kts | 41° |
| 2026-04-11 06:30 | 52.32116 | 4.77984 | 4 ft | 10 kts | 121° |
| 2026-04-11 06:30 | 52.32066 | 4.78008 | 4 ft | 0 kts | 184° |
| 2026-04-11 06:31 | 52.32034 | 4.78005 | 4 ft | 21 kts | 182° |
| 2026-04-11 06:31 | 52.31589 | 4.77968 | 5 ft | 107 kts | 183° |
| 2026-04-11 06:31 | 52.30555 | 4.77884 | 8 ft | 188 kts | 184° |
| 2026-04-11 06:31 | 52.29281 | 4.77744 | 519 ft | 209 kts | 180° |
| 2026-04-11 06:32 | 52.27963 | 4.77631 | 1776 ft | 206 kts | 173° |
| 2026-04-11 06:32 | 52.26551 | 4.78167 | 2778 ft | 217 kts | 161° |
| 2026-04-11 06:32 | 52.25066 | 4.78952 | 3377 ft | 230 kts | 163° |
| 2026-04-11 06:32 | 52.23524 | 4.79704 | 3767 ft | 240 kts | 171° |
| 2026-04-11 06:33 | 52.21876 | 4.79396 | 4209 ft | 247 kts | 206° |
| 2026-04-11 06:33 | 52.20544 | 4.77527 | 4817 ft | 255 kts | 236° |
| 2026-04-11 06:33 | 52.19930 | 4.74831 | 5443 ft | 263 kts | 262° |
| 2026-04-11 06:33 | 52.20093 | 4.71859 | 6130 ft | 266 kts | 279° |
| 2026-04-11 06:34 | 52.20522 | 4.68893 | 6711 ft | 270 kts | 279° |
| 2026-04-11 06:34 | 52.20930 | 4.66008 | 7374 ft | 269 kts | 278° |
| 2026-04-11 06:34 | 52.21340 | 4.63030 | 8109 ft | 269 kts | 278° |
| 2026-04-11 06:34 | 52.21730 | 4.60165 | 8772 ft | 269 kts | 278° |
| 2026-04-11 06:35 | 52.22131 | 4.57191 | 9424 ft | 268 kts | 276° |
| 2026-04-11 06:35 | 52.22127 | 4.54207 | 9890 ft | 264 kts | 251° |
| 2026-04-11 06:35 | 52.21517 | 4.51354 | 10176 ft | 274 kts | 249° |
| 2026-04-11 06:35 | 52.20866 | 4.48308 | 10330 ft | 294 kts | 249° |
| 2026-04-11 06:36 | 52.20180 | 4.45052 | 10495 ft | 315 kts | 250° |
| 2026-04-11 06:36 | 52.19449 | 4.41589 | 10650 ft | 335 kts | 250° |
| 2026-04-11 06:36 | 52.18675 | 4.37924 | 11064 ft | 346 kts | 250° |
| 2026-04-11 06:36 | 52.17894 | 4.34225 | 11643 ft | 353 kts | 250° |
| 2026-04-11 06:37 | 52.17103 | 4.30485 | 12330 ft | 355 kts | 250° |
| 2026-04-11 06:37 | 52.16293 | 4.26659 | 13082 ft | 357 kts | 250° |
| 2026-04-11 06:37 | 52.15477 | 4.22822 | 13802 ft | 360 kts | 250° |
| 2026-04-11 06:37 | 52.14655 | 4.18963 | 14364 ft | 364 kts | 250° |
| 2026-04-11 06:38 | 52.13815 | 4.15025 | 14900 ft | 370 kts | 250° |
| 2026-04-11 06:38 | 52.12963 | 4.11045 | 15449 ft | 375 kts | 250° |
| 2026-04-11 06:38 | 52.12099 | 4.07012 | 16025 ft | 379 kts | 249° |
| 2026-04-11 06:38 | 52.11225 | 4.02941 | 16602 ft | 384 kts | 249° |
| 2026-04-11 06:39 | 52.10338 | 3.98816 | 17178 ft | 389 kts | 249° |
| 2026-04-11 06:39 | 52.09441 | 3.94655 | 17749 ft | 393 kts | 249° |
| 2026-04-11 06:39 | 52.08528 | 3.90419 | 18345 ft | 396 kts | 249° |
| 2026-04-11 06:39 | 52.07614 | 3.86193 | 18957 ft | 397 kts | 249° |
| 2026-04-11 06:40 | 52.06693 | 3.81950 | 19525 ft | 399 kts | 248° |
| 2026-04-11 06:40 | 52.05764 | 3.77690 | 20083 ft | 402 kts | 248° |
| 2026-04-11 06:40 | 52.04826 | 3.73396 | 20610 ft | 404 kts | 248° |
| 2026-04-11 06:40 | 52.03881 | 3.69075 | 21137 ft | 407 kts | 248° |
| 2026-04-11 06:41 | 52.02930 | 3.64734 | 21642 ft | 410 kts | 248° |
| 2026-04-11 06:41 | 52.01971 | 3.60362 | 22173 ft | 412 kts | 248° |
| 2026-04-11 06:41 | 52.01005 | 3.55966 | 22693 ft | 415 kts | 248° |
| 2026-04-11 06:41 | 52.00030 | 3.51550 | 23179 ft | 417 kts | 248° |
| 2026-04-11 06:42 | 51.98790 | 3.47309 | 23575 ft | 417 kts | 235° |
| 2026-04-11 06:42 | 51.97055 | 3.43545 | 23874 ft | 418 kts | 231° |
| 2026-04-11 06:42 | 51.95241 | 3.39777 | 23860 ft | 428 kts | 232° |
| 2026-04-11 06:42 | 51.93417 | 3.35895 | 23849 ft | 436 kts | 232° |
| 2026-04-11 06:43 | 51.91598 | 3.31935 | 23845 ft | 438 kts | 233° |
| 2026-04-11 06:43 | 51.89792 | 3.27953 | 23838 ft | 439 kts | 233° |
| 2026-04-11 06:43 | 51.87988 | 3.23970 | 23835 ft | 438 kts | 234° |
| 2026-04-11 06:43 | 51.86414 | 3.19746 | 23830 ft | 440 kts | 243° |
| 2026-04-11 06:44 | 51.85272 | 3.15141 | 23838 ft | 441 kts | 250° |
| 2026-04-11 06:44 | 51.84447 | 3.10362 | 23830 ft | 443 kts | 256° |
| 2026-04-11 06:44 | 51.84042 | 3.05473 | 23836 ft | 446 kts | 262° |
| 2026-04-11 06:44 | 51.83767 | 3.00482 | 23822 ft | 446 kts | 262° |
| 2026-04-11 06:45 | 51.83478 | 2.95496 | 23824 ft | 446 kts | 262° |
| 2026-04-11 06:45 | 51.83172 | 2.90497 | 23837 ft | 446 kts | 261° |
| 2026-04-11 06:45 | 51.82853 | 2.85522 | 23823 ft | 445 kts | 261° |
| 2026-04-11 06:45 | 51.82526 | 2.80553 | 23823 ft | 444 kts | 261° |
| 2026-04-11 06:46 | 51.82197 | 2.75594 | 23815 ft | 443 kts | 261° |
| 2026-04-11 06:46 | 51.81867 | 2.70647 | 23802 ft | 442 kts | 261° |
| 2026-04-11 06:46 | 51.81535 | 2.65711 | 23801 ft | 442 kts | 261° |
| 2026-04-11 06:46 | 51.81199 | 2.60776 | 23797 ft | 441 kts | 261° |
| 2026-04-11 06:47 | 51.80860 | 2.55857 | 23807 ft | 441 kts | 261° |
| 2026-04-11 06:47 | 51.80518 | 2.50939 | 23798 ft | 441 kts | 261° |
| 2026-04-11 06:47 | 51.80174 | 2.46013 | 23796 ft | 441 kts | 260° |
| 2026-04-11 06:47 | 51.79830 | 2.41103 | 23813 ft | 441 kts | 260° |
| 2026-04-11 06:48 | 51.79482 | 2.36174 | 23804 ft | 441 kts | 259° |
| 2026-04-11 06:48 | 51.79134 | 2.31254 | 23789 ft | 441 kts | 259° |
| 2026-04-11 06:48 | 51.78783 | 2.26324 | 23787 ft | 442 kts | 259° |
| 2026-04-11 06:48 | 51.78432 | 2.21403 | 23772 ft | 441 kts | 260° |
| 2026-04-11 06:49 | 51.78120 | 2.16481 | 23778 ft | 441 kts | 261° |
| 2026-04-11 06:49 | 51.77836 | 2.11554 | 23767 ft | 440 kts | 261° |
| 2026-04-11 06:49 | 51.77558 | 2.06635 | 23769 ft | 439 kts | 261° |
| 2026-04-11 06:49 | 51.77278 | 2.01728 | 23772 ft | 439 kts | 261° |
| 2026-04-11 06:50 | 51.76991 | 1.96824 | 23771 ft | 438 kts | 261° |
| 2026-04-11 06:50 | 51.76699 | 1.91927 | 23789 ft | 439 kts | 260° |
| 2026-04-11 06:50 | 51.76401 | 1.87019 | 23769 ft | 440 kts | 260° |
| 2026-04-11 06:50 | 51.76104 | 1.82160 | 23769 ft | 441 kts | 260° |
| 2026-04-11 06:51 | 51.75801 | 1.77242 | 23769 ft | 441 kts | 260° |
| 2026-04-11 06:51 | 51.75496 | 1.72302 | 23760 ft | 442 kts | 260° |
| 2026-04-11 06:51 | 51.75189 | 1.67366 | 23756 ft | 443 kts | 259° |
| 2026-04-11 06:51 | 51.74879 | 1.62422 | 23759 ft | 443 kts | 259° |
| 2026-04-11 06:52 | 51.74565 | 1.57481 | 23754 ft | 443 kts | 259° |
| 2026-04-11 06:52 | 51.74244 | 1.52535 | 23756 ft | 443 kts | 259° |
| 2026-04-11 06:52 | 51.73923 | 1.47597 | 23751 ft | 443 kts | 259° |
| 2026-04-11 06:52 | 51.73599 | 1.42663 | 23777 ft | 443 kts | 259° |
| 2026-04-11 06:53 | 51.73274 | 1.37724 | 23763 ft | 443 kts | 259° |
| 2026-04-11 06:53 | 51.72947 | 1.32780 | 23754 ft | 442 kts | 259° |
| 2026-04-11 06:53 | 51.72620 | 1.27843 | 23752 ft | 442 kts | 259° |
| 2026-04-11 06:53 | 51.72291 | 1.22925 | 23740 ft | 441 kts | 259° |
| 2026-04-11 06:54 | 51.71960 | 1.18003 | 23753 ft | 441 kts | 259° |
| 2026-04-11 06:54 | 51.71628 | 1.13087 | 23757 ft | 441 kts | 259° |
| 2026-04-11 06:54 | 51.71293 | 1.08174 | 23752 ft | 441 kts | 259° |
| 2026-04-11 06:54 | 51.70961 | 1.03247 | 23849 ft | 444 kts | 259° |
| 2026-04-11 06:55 | 51.70629 | 0.98300 | 24296 ft | 444 kts | 259° |
| 2026-04-11 06:55 | 51.70297 | 0.93360 | 24815 ft | 443 kts | 259° |
| 2026-04-11 06:55 | 51.69953 | 0.88419 | 25217 ft | 444 kts | 259° |
| 2026-04-11 06:55 | 51.69603 | 0.83468 | 25568 ft | 445 kts | 259° |
| 2026-04-11 06:56 | 51.69250 | 0.78513 | 25882 ft | 446 kts | 257° |
| 2026-04-11 06:56 | 51.68781 | 0.73574 | 26215 ft | 445 kts | 256° |
| 2026-04-11 06:56 | 51.68276 | 0.68707 | 26503 ft | 446 kts | 256° |
| 2026-04-11 06:56 | 51.67752 | 0.63779 | 26844 ft | 446 kts | 255° |
| 2026-04-11 06:57 | 51.67228 | 0.58875 | 27318 ft | 442 kts | 255° |
| 2026-04-11 06:57 | 51.66710 | 0.54014 | 27754 ft | 440 kts | 255° |
| 2026-04-11 06:57 | 51.66190 | 0.49141 | 27704 ft | 440 kts | 255° |
| 2026-04-11 06:57 | 51.65675 | 0.44309 | 27738 ft | 436 kts | 255° |
| 2026-04-11 06:58 | 51.65165 | 0.39514 | 27720 ft | 433 kts | 255° |
| 2026-04-11 06:58 | 51.64654 | 0.34729 | 27735 ft | 433 kts | 255° |
| 2026-04-11 06:58 | 51.64140 | 0.29941 | 27711 ft | 434 kts | 255° |
| 2026-04-11 06:58 | 51.63623 | 0.25151 | 27730 ft | 435 kts | 255° |
| 2026-04-11 06:59 | 51.63105 | 0.20359 | 27713 ft | 435 kts | 255° |
| 2026-04-11 06:59 | 51.62584 | 0.15561 | 27728 ft | 435 kts | 255° |
| 2026-04-11 06:59 | 51.62061 | 0.10757 | 27717 ft | 436 kts | 255° |
| 2026-04-11 06:59 | 51.61536 | 0.05956 | 27728 ft | 436 kts | 255° |
| 2026-04-11 07:00 | 51.61010 | 0.01161 | 27721 ft | 435 kts | 254° |
| 2026-04-11 07:00 | 51.60481 | -0.03629 | 27722 ft | 435 kts | 254° |
| 2026-04-11 07:00 | 51.59952 | -0.08410 | 27683 ft | 433 kts | 254° |
| 2026-04-11 07:00 | 51.59425 | -0.13164 | 27680 ft | 431 kts | 254° |
| 2026-04-11 07:01 | 51.58900 | -0.17890 | 27672 ft | 429 kts | 253° |
| 2026-04-11 07:01 | 51.58373 | -0.22601 | 27691 ft | 427 kts | 253° |
| 2026-04-11 07:01 | 51.57847 | -0.27284 | 27689 ft | 426 kts | 253° |
| 2026-04-11 07:01 | 51.57316 | -0.31982 | 27675 ft | 426 kts | 253° |
| 2026-04-11 07:02 | 51.56792 | -0.36605 | 27688 ft | 426 kts | 253° |
| 2026-04-11 07:02 | 51.56260 | -0.41285 | 27694 ft | 426 kts | 253° |
| 2026-04-11 07:02 | 51.55724 | -0.45974 | 27692 ft | 427 kts | 253° |
| 2026-04-11 07:02 | 51.55186 | -0.50675 | 27695 ft | 428 kts | 253° |
| 2026-04-11 07:03 | 51.54645 | -0.55375 | 27694 ft | 429 kts | 253° |
| 2026-04-11 07:03 | 51.54100 | -0.60096 | 27723 ft | 429 kts | 253° |
| 2026-04-11 07:03 | 51.53554 | -0.64814 | 27720 ft | 430 kts | 253° |
| 2026-04-11 07:03 | 51.53004 | -0.69547 | 27718 ft | 430 kts | 253° |
| 2026-04-11 07:04 | 51.52453 | -0.74279 | 27715 ft | 431 kts | 253° |
| 2026-04-11 07:04 | 51.51900 | -0.79004 | 27715 ft | 431 kts | 253° |
| 2026-04-11 07:04 | 51.51346 | -0.83722 | 27707 ft | 430 kts | 253° |
| 2026-04-11 07:04 | 51.50788 | -0.88453 | 27715 ft | 430 kts | 253° |
| 2026-04-11 07:05 | 51.50238 | -0.93107 | 27700 ft | 430 kts | 253° |
| 2026-04-11 07:05 | 51.49679 | -0.97818 | 27728 ft | 430 kts | 252° |
| 2026-04-11 07:05 | 51.49117 | -1.02528 | 27674 ft | 429 kts | 252° |
| 2026-04-11 07:05 | 51.48556 | -1.07225 | 27679 ft | 428 kts | 252° |
| 2026-04-11 07:06 | 51.47995 | -1.11902 | 27668 ft | 426 kts | 252° |
| 2026-04-11 07:06 | 51.47433 | -1.16567 | 27675 ft | 425 kts | 252° |
| 2026-04-11 07:06 | 51.46871 | -1.21219 | 27716 ft | 424 kts | 252° |
| 2026-04-11 07:06 | 51.46307 | -1.25858 | 27713 ft | 424 kts | 252° |
| 2026-04-11 07:07 | 51.45742 | -1.30491 | 27714 ft | 424 kts | 252° |
| 2026-04-11 07:07 | 51.45175 | -1.35132 | 27715 ft | 424 kts | 252° |
| 2026-04-11 07:07 | 51.44606 | -1.39770 | 27713 ft | 424 kts | 252° |
| 2026-04-11 07:07 | 51.44036 | -1.44409 | 27766 ft | 424 kts | 251° |
| 2026-04-11 07:08 | 51.43462 | -1.49051 | 27733 ft | 425 kts | 251° |
| 2026-04-11 07:08 | 51.42887 | -1.53693 | 27728 ft | 425 kts | 251° |
| 2026-04-11 07:08 | 51.42311 | -1.58332 | 27720 ft | 424 kts | 251° |
| 2026-04-11 07:08 | 51.41735 | -1.62964 | 27724 ft | 424 kts | 251° |
| 2026-04-11 07:09 | 51.41156 | -1.67590 | 27705 ft | 423 kts | 251° |
| 2026-04-11 07:09 | 51.40507 | -1.72177 | 27726 ft | 420 kts | 248° |
| 2026-04-11 07:09 | 51.39627 | -1.76601 | 27709 ft | 415 kts | 243° |
| 2026-04-11 07:09 | 51.38624 | -1.80929 | 27708 ft | 415 kts | 244° |
| 2026-04-11 07:10 | 51.36694 | -1.89659 | 27725 ft | 416 kts | 244° |
| 2026-04-11 07:10 | 51.35744 | -1.93965 | 27776 ft | 416 kts | 243° |
| 2026-04-11 07:10 | 51.34855 | -1.98390 | 27732 ft | 420 kts | 247° |
| 2026-04-11 07:11 | 51.34166 | -2.02938 | 27725 ft | 421 kts | 250° |
| 2026-04-11 07:11 | 51.33697 | -2.07598 | 27820 ft | 428 kts | 253° |
| 2026-04-11 07:11 | 51.33307 | -2.12295 | 28179 ft | 426 kts | 253° |
| 2026-04-11 07:11 | 51.32904 | -2.16965 | 28668 ft | 421 kts | 253° |
| 2026-04-11 07:12 | 51.32499 | -2.21575 | 29184 ft | 416 kts | 252° |
| 2026-04-11 07:12 | 51.32225 | -2.24663 | 29513 ft | 414 kts | 252° |
| 2026-04-11 07:12 | 51.31819 | -2.29191 | 29946 ft | 411 kts | 252° |
| 2026-04-11 07:12 | 51.31409 | -2.33712 | 30178 ft | 411 kts | 252° |
| 2026-04-11 07:13 | 51.30994 | -2.38249 | 30316 ft | 413 kts | 252° |
| 2026-04-11 07:13 | 51.30577 | -2.42784 | 30629 ft | 412 kts | 251° |
| 2026-04-11 07:13 | 51.30163 | -2.47313 | 30942 ft | 411 kts | 251° |
| 2026-04-11 07:13 | 51.29750 | -2.51824 | 31206 ft | 410 kts | 251° |
| 2026-04-11 07:14 | 51.29341 | -2.56276 | 31435 ft | 410 kts | 251° |
| 2026-04-11 07:14 | 51.28926 | -2.60768 | 31620 ft | 410 kts | 251° |
| 2026-04-11 07:14 | 51.28083 | -2.69794 | 31702 ft | 411 kts | 251° |
| 2026-04-11 07:15 | 51.27236 | -2.78815 | 31735 ft | 410 kts | 251° |
| 2026-04-11 07:15 | 51.26387 | -2.87796 | 31806 ft | 408 kts | 250° |
| 2026-04-11 07:16 | 51.25529 | -2.96765 | 31731 ft | 408 kts | 250° |
| 2026-04-11 07:16 | 51.24670 | -3.05697 | 31722 ft | 406 kts | 250° |
| 2026-04-11 07:17 | 51.23806 | -3.14592 | 31733 ft | 405 kts | 250° |
| 2026-04-11 07:17 | 51.22942 | -3.23403 | 31730 ft | 405 kts | 250° |
| 2026-04-11 07:18 | 51.22065 | -3.32272 | 31733 ft | 405 kts | 250° |
| 2026-04-11 07:18 | 51.21181 | -3.41152 | 31744 ft | 407 kts | 249° |
| 2026-04-11 07:19 | 51.20288 | -3.50059 | 31728 ft | 406 kts | 249° |
| 2026-04-11 07:19 | 51.19390 | -3.58948 | 31724 ft | 405 kts | 249° |
| 2026-04-11 07:20 | 51.18489 | -3.67809 | 31744 ft | 405 kts | 249° |
| 2026-04-11 07:20 | 51.17717 | -3.76741 | 31738 ft | 413 kts | 254° |
| 2026-04-11 07:21 | 51.17519 | -3.85958 | 31756 ft | 417 kts | 255° |
| 2026-04-11 07:21 | 51.17296 | -3.95211 | 31746 ft | 418 kts | 255° |
| 2026-04-11 07:22 | 51.17056 | -4.04473 | 31736 ft | 419 kts | 255° |
| 2026-04-11 07:22 | 51.16810 | -4.13736 | 31743 ft | 419 kts | 255° |
| 2026-04-11 07:23 | 51.16560 | -4.22939 | 31760 ft | 417 kts | 255° |
| 2026-04-11 07:23 | 51.16299 | -4.32179 | 31803 ft | 419 kts | 255° |
| 2026-04-11 07:24 | 51.16028 | -4.41464 | 31740 ft | 421 kts | 255° |
| 2026-04-11 07:24 | 51.15752 | -4.50788 | 31737 ft | 421 kts | 255° |
| 2026-04-11 07:25 | 51.15469 | -4.60109 | 31742 ft | 421 kts | 255° |
| 2026-04-11 07:25 | 51.15178 | -4.69423 | 31743 ft | 421 kts | 255° |
| 2026-04-11 07:26 | 51.14879 | -4.78742 | 31801 ft | 422 kts | 255° |
| 2026-04-11 07:26 | 51.14570 | -4.88095 | 31748 ft | 423 kts | 255° |
| 2026-04-11 07:27 | 51.14256 | -4.97450 | 31732 ft | 423 kts | 255° |
| 2026-04-11 07:27 | 51.13934 | -5.06806 | 31735 ft | 423 kts | 255° |
| 2026-04-11 07:28 | 51.13604 | -5.16155 | 31732 ft | 422 kts | 255° |
| 2026-04-11 07:28 | 51.13268 | -5.25486 | 31738 ft | 422 kts | 255° |
| 2026-04-11 07:29 | 51.12923 | -5.34817 | 31730 ft | 422 kts | 255° |
| 2026-04-11 07:29 | 51.12572 | -5.44139 | 31731 ft | 422 kts | 255° |
| 2026-04-11 07:30 | 51.12215 | -5.53399 | 31729 ft | 422 kts | 255° |
| 2026-04-11 07:30 | 51.11849 | -5.62715 | 31726 ft | 422 kts | 255° |
| 2026-04-11 07:31 | 51.11475 | -5.72035 | 31789 ft | 423 kts | 255° |
| 2026-04-11 07:31 | 51.11090 | -5.81395 | 31729 ft | 425 kts | 255° |
| 2026-04-11 07:32 | 51.10698 | -5.90792 | 31721 ft | 426 kts | 255° |
| 2026-04-11 07:32 | 51.10300 | -6.00191 | 31717 ft | 426 kts | 255° |
| 2026-04-11 07:33 | 51.09893 | -6.09588 | 31714 ft | 426 kts | 255° |
| 2026-04-11 07:33 | 51.09479 | -6.18985 | 31769 ft | 426 kts | 256° |
| 2026-04-11 07:34 | 51.09054 | -6.28413 | 31718 ft | 427 kts | 256° |
| 2026-04-11 07:34 | 51.08623 | -6.37847 | 31710 ft | 428 kts | 256° |
| 2026-04-11 07:35 | 51.08184 | -6.47287 | 31709 ft | 428 kts | 256° |
| 2026-04-11 07:35 | 51.07737 | -6.56725 | 31709 ft | 428 kts | 256° |
| 2026-04-11 07:36 | 51.07281 | -6.66164 | 31766 ft | 429 kts | 257° |
| 2026-04-11 07:36 | 51.06814 | -6.75650 | 31717 ft | 431 kts | 257° |
| 2026-04-11 07:37 | 51.06340 | -6.85178 | 31705 ft | 433 kts | 257° |
| 2026-04-11 07:37 | 51.05860 | -6.94666 | 31704 ft | 434 kts | 257° |
| 2026-04-11 07:38 | 51.05368 | -7.04229 | 31699 ft | 434 kts | 257° |
| 2026-04-11 07:38 | 51.04868 | -7.13794 | 31738 ft | 435 kts | 258° |
| 2026-04-11 07:39 | 51.04356 | -7.23408 | 31701 ft | 437 kts | 258° |
| 2026-04-11 07:39 | 51.03837 | -7.33040 | 31695 ft | 438 kts | 257° |
| 2026-04-11 07:40 | 51.03309 | -7.42681 | 31686 ft | 438 kts | 257° |
| 2026-04-11 07:40 | 51.02772 | -7.52322 | 31688 ft | 438 kts | 257° |
| 2026-04-11 07:41 | 51.02227 | -7.61964 | 31699 ft | 439 kts | 258° |
| 2026-04-11 07:41 | 51.01673 | -7.71637 | 31689 ft | 440 kts | 258° |
| 2026-04-11 07:42 | 51.01110 | -7.81312 | 31676 ft | 440 kts | 258° |
| 2026-04-11 07:43 | 51.00122 | -7.95789 | 31668 ft | 436 kts | 252° |
| 2026-04-11 07:43 | 50.98483 | -8.04978 | 31709 ft | 430 kts | 245° |
| 2026-04-11 07:44 | 50.96205 | -8.13706 | 31675 ft | 432 kts | 244° |
| 2026-04-11 07:44 | 50.93891 | -8.22529 | 31672 ft | 434 kts | 244° |
| 2026-04-11 07:45 | 50.91573 | -8.31380 | 31668 ft | 436 kts | 244° |
| 2026-04-11 07:45 | 50.89246 | -8.40255 | 31666 ft | 436 kts | 244° |
| 2026-04-11 07:46 | 50.86917 | -8.49111 | 31703 ft | 436 kts | 244° |
| 2026-04-11 07:46 | 50.84571 | -8.57989 | 31670 ft | 437 kts | 244° |
| 2026-04-11 07:47 | 50.82217 | -8.66871 | 31670 ft | 438 kts | 244° |
| 2026-04-11 07:47 | 50.79851 | -8.75759 | 31669 ft | 439 kts | 244° |
| 2026-04-11 07:48 | 50.77480 | -8.84633 | 31665 ft | 439 kts | 244° |
| 2026-04-11 07:48 | 50.75097 | -8.93513 | 31688 ft | 439 kts | 245° |
| 2026-04-11 07:49 | 50.72706 | -9.02391 | 31675 ft | 440 kts | 245° |
| 2026-04-11 07:49 | 50.70307 | -9.11268 | 31677 ft | 440 kts | 245° |
| 2026-04-11 07:50 | 50.67897 | -9.20149 | 31672 ft | 440 kts | 245° |
| 2026-04-11 07:50 | 50.65484 | -9.29010 | 31674 ft | 440 kts | 245° |
| 2026-04-11 07:51 | 50.63063 | -9.37862 | 31692 ft | 440 kts | 245° |
| 2026-04-11 07:51 | 50.60633 | -9.46713 | 31679 ft | 440 kts | 245° |
| 2026-04-11 07:52 | 50.58196 | -9.55562 | 31671 ft | 440 kts | 245° |
| 2026-04-11 07:52 | 50.55754 | -9.64391 | 31679 ft | 440 kts | 245° |
| 2026-04-11 07:53 | 50.53306 | -9.73211 | 31683 ft | 440 kts | 245° |
| 2026-04-11 07:53 | 50.50866 | -9.81966 | 31679 ft | 440 kts | 245° |
| 2026-04-11 07:54 | 50.48404 | -9.90767 | 31673 ft | 440 kts | 245° |
| 2026-04-11 07:54 | 50.45938 | -9.99552 | 31676 ft | 440 kts | 245° |
| 2026-04-11 07:55 | 50.43463 | -10.08337 | 31653 ft | 439 kts | 245° |
| 2026-04-11 07:55 | 50.40988 | -10.17086 | 31676 ft | 439 kts | 245° |
| 2026-04-11 07:56 | 50.38507 | -10.25825 | 31695 ft | 439 kts | 245° |
| 2026-04-11 07:56 | 50.36018 | -10.34563 | 31688 ft | 440 kts | 245° |
| 2026-04-11 07:57 | 50.33518 | -10.43305 | 31680 ft | 440 kts | 245° |
| 2026-04-11 07:57 | 50.31012 | -10.52035 | 31682 ft | 440 kts | 245° |
| 2026-04-11 07:58 | 50.28498 | -10.60763 | 31690 ft | 440 kts | 245° |
| 2026-04-11 07:58 | 50.25977 | -10.69482 | 31689 ft | 440 kts | 245° |
| 2026-04-11 07:59 | 50.23874 | -10.76731 | 31690 ft | 441 kts | 245° |
| 2026-04-11 07:59 | 50.21339 | -10.85441 | 31690 ft | 441 kts | 245° |
| 2026-04-11 08:00 | 50.18794 | -10.94154 | 31699 ft | 441 kts | 246° |
| 2026-04-11 08:00 | 50.16241 | -11.02862 | 31702 ft | 441 kts | 245° |
| 2026-04-11 08:01 | 50.13682 | -11.11557 | 31710 ft | 441 kts | 246° |
| 2026-04-11 08:01 | 50.11111 | -11.20261 | 31704 ft | 442 kts | 246° |
| 2026-04-11 08:02 | 50.08537 | -11.28948 | 31692 ft | 441 kts | 246° |
| 2026-04-11 08:02 | 50.05962 | -11.37607 | 31698 ft | 441 kts | 246° |
| 2026-04-11 08:02 | 50.04685 | -11.41887 | 31832 ft | 442 kts | 246° |
| 2026-04-11 08:03 | 50.03391 | -11.46218 | 32110 ft | 441 kts | 245° |
| 2026-04-11 08:03 | 50.02100 | -11.50532 | 32407 ft | 439 kts | 246° |
| 2026-04-11 08:03 | 50.00811 | -11.54833 | 32678 ft | 438 kts | 246° |
| 2026-04-11 08:03 | 49.99524 | -11.59117 | 32907 ft | 438 kts | 246° |
| 2026-04-11 08:04 | 49.98232 | -11.63410 | 33116 ft | 438 kts | 246° |
| 2026-04-11 08:04 | 49.96941 | -11.67694 | 33304 ft | 438 kts | 246° |
| 2026-04-11 08:04 | 49.95648 | -11.71978 | 33527 ft | 437 kts | 246° |
| 2026-04-11 08:05 | 49.93058 | -11.80532 | 33674 ft | 439 kts | 246° |
| 2026-04-11 08:05 | 49.90457 | -11.89094 | 33704 ft | 438 kts | 246° |
| 2026-04-11 08:06 | 49.87853 | -11.97637 | 33722 ft | 437 kts | 246° |
| 2026-04-11 08:06 | 49.85250 | -12.06144 | 33720 ft | 437 kts | 246° |
| 2026-04-11 08:07 | 49.82641 | -12.14645 | 33720 ft | 437 kts | 246° |
| 2026-04-11 08:07 | 49.80025 | -12.23137 | 33722 ft | 437 kts | 246° |
| 2026-04-11 08:08 | 49.76084 | -12.35871 | 33724 ft | 438 kts | 246° |
| 2026-04-11 08:08 | 49.73451 | -12.44349 | 33723 ft | 437 kts | 246° |
| 2026-04-11 08:09 | 49.70810 | -12.52818 | 33732 ft | 438 kts | 246° |
| 2026-04-11 08:09 | 49.68159 | -12.61291 | 33731 ft | 438 kts | 246° |
| 2026-04-11 08:10 | 49.65503 | -12.69753 | 33741 ft | 438 kts | 246° |
| 2026-04-11 08:10 | 49.62836 | -12.78219 | 33732 ft | 439 kts | 246° |
| 2026-04-11 08:11 | 49.60162 | -12.86679 | 33746 ft | 439 kts | 246° |
| 2026-04-11 08:11 | 49.57486 | -12.95118 | 33748 ft | 439 kts | 246° |
| 2026-04-11 08:12 | 49.54801 | -13.03554 | 33747 ft | 439 kts | 246° |
| 2026-04-11 08:12 | 49.52110 | -13.11984 | 33737 ft | 438 kts | 247° |
| 2026-04-11 08:13 | 49.49433 | -13.20339 | 33754 ft | 438 kts | 247° |
| 2026-04-11 08:13 | 49.46736 | -13.28728 | 33761 ft | 437 kts | 247° |
| 2026-04-11 08:14 | 49.44037 | -13.37097 | 33760 ft | 437 kts | 247° |
| 2026-04-11 08:14 | 49.41331 | -13.45459 | 33762 ft | 437 kts | 247° |
| 2026-04-11 08:15 | 49.38625 | -13.53791 | 33763 ft | 435 kts | 247° |
| 2026-04-11 08:15 | 49.35917 | -13.62106 | 33764 ft | 436 kts | 247° |
| 2026-04-11 08:16 | 49.33201 | -13.70416 | 33781 ft | 436 kts | 247° |
| 2026-04-11 08:16 | 49.30479 | -13.78720 | 33782 ft | 436 kts | 247° |
| 2026-04-11 08:17 | 49.27748 | -13.87021 | 33783 ft | 436 kts | 247° |
| 2026-04-11 08:17 | 49.25009 | -13.95317 | 33784 ft | 437 kts | 247° |
| 2026-04-11 08:18 | 49.22261 | -14.03616 | 33790 ft | 437 kts | 247° |
| 2026-04-11 08:18 | 49.19507 | -14.11904 | 33789 ft | 437 kts | 247° |
| 2026-04-11 08:19 | 49.16745 | -14.20190 | 33803 ft | 437 kts | 247° |
| 2026-04-11 08:19 | 49.13980 | -14.28459 | 33792 ft | 437 kts | 247° |
| 2026-04-11 08:20 | 49.11209 | -14.36715 | 33806 ft | 437 kts | 247° |
| 2026-04-11 08:20 | 49.08455 | -14.44899 | 33805 ft | 437 kts | 247° |
| 2026-04-11 08:21 | 49.05676 | -14.53131 | 33805 ft | 436 kts | 247° |
| 2026-04-11 08:21 | 49.02892 | -14.61349 | 33820 ft | 435 kts | 247° |
| 2026-04-11 08:22 | 49.00109 | -14.69537 | 33808 ft | 435 kts | 248° |
| 2026-04-11 08:22 | 48.97326 | -14.77700 | 33826 ft | 434 kts | 248° |
| 2026-04-11 08:23 | 48.94539 | -14.85849 | 33832 ft | 434 kts | 248° |
| 2026-04-11 08:23 | 48.91745 | -14.93992 | 33836 ft | 434 kts | 247° |
| 2026-04-11 08:24 | 48.88948 | -15.02119 | 33850 ft | 434 kts | 247° |
| 2026-04-11 08:24 | 48.86146 | -15.10232 | 33846 ft | 434 kts | 248° |
| 2026-04-11 08:25 | 48.83338 | -15.18340 | 33852 ft | 434 kts | 248° |
| 2026-04-11 08:25 | 48.80524 | -15.26438 | 33861 ft | 434 kts | 248° |
| 2026-04-11 08:26 | 48.77705 | -15.34527 | 33859 ft | 434 kts | 248° |
| 2026-04-11 08:26 | 48.74879 | -15.42608 | 33878 ft | 434 kts | 248° |
| 2026-04-11 08:27 | 48.72048 | -15.50678 | 33874 ft | 433 kts | 248° |
| 2026-04-11 08:27 | 48.69217 | -15.58726 | 33882 ft | 433 kts | 248° |
| 2026-04-11 08:28 | 48.66380 | -15.66764 | 33883 ft | 432 kts | 248° |
| 2026-04-11 08:28 | 48.63547 | -15.74767 | 33887 ft | 432 kts | 248° |
| 2026-04-11 08:29 | 48.60702 | -15.82778 | 33884 ft | 432 kts | 248° |
| 2026-04-11 08:29 | 48.57859 | -15.90760 | 33903 ft | 431 kts | 248° |
| 2026-04-11 08:30 | 48.55010 | -15.98733 | 33913 ft | 431 kts | 248° |
| 2026-04-11 08:30 | 48.52163 | -16.06679 | 33915 ft | 430 kts | 248° |
| 2026-04-11 08:31 | 48.49340 | -16.14532 | 33918 ft | 430 kts | 248° |
| 2026-04-11 08:31 | 48.46485 | -16.22448 | 33916 ft | 429 kts | 248° |
| 2026-04-11 08:32 | 48.43627 | -16.30349 | 33933 ft | 428 kts | 248° |
| 2026-04-11 08:32 | 48.40775 | -16.38212 | 33937 ft | 428 kts | 248° |
| 2026-04-11 08:33 | 48.37919 | -16.46064 | 33942 ft | 428 kts | 248° |
| 2026-04-11 08:33 | 48.35057 | -16.53907 | 33943 ft | 427 kts | 248° |
| 2026-04-11 08:34 | 48.32193 | -16.61731 | 33948 ft | 427 kts | 248° |
| 2026-04-11 08:34 | 48.29349 | -16.69479 | 33953 ft | 426 kts | 248° |
| 2026-04-11 08:35 | 48.26486 | -16.77255 | 33964 ft | 425 kts | 248° |
| 2026-04-11 08:35 | 48.23621 | -16.85013 | 33975 ft | 425 kts | 248° |
| 2026-04-11 08:36 | 48.20751 | -16.92763 | 33975 ft | 425 kts | 248° |
| 2026-04-11 08:36 | 48.17881 | -17.00491 | 33980 ft | 424 kts | 248° |
| 2026-04-11 08:37 | 48.15006 | -17.08208 | 33990 ft | 424 kts | 248° |
| 2026-04-11 08:37 | 48.12127 | -17.15914 | 33996 ft | 424 kts | 248° |
| 2026-04-11 08:38 | 48.09248 | -17.23597 | 33997 ft | 424 kts | 248° |
| 2026-04-11 08:38 | 48.06363 | -17.31274 | 33987 ft | 423 kts | 248° |
| 2026-04-11 08:39 | 48.03479 | -17.38928 | 33996 ft | 422 kts | 248° |
| 2026-04-11 08:39 | 48.00590 | -17.46571 | 34011 ft | 422 kts | 248° |
| 2026-04-11 08:40 | 47.97700 | -17.54197 | 34012 ft | 422 kts | 247° |
| 2026-04-11 08:40 | 47.94800 | -17.61827 | 34019 ft | 422 kts | 247° |
| 2026-04-11 08:41 | 47.91897 | -17.69441 | 34010 ft | 421 kts | 247° |
| 2026-04-11 08:41 | 47.88994 | -17.77032 | 34024 ft | 421 kts | 247° |
| 2026-04-11 08:42 | 47.86111 | -17.84552 | 34027 ft | 421 kts | 247° |
| 2026-04-11 08:43 | 47.81745 | -17.95900 | 34041 ft | 421 kts | 247° |
| 2026-04-11 08:43 | 47.78827 | -18.03458 | 34039 ft | 421 kts | 247° |
| 2026-04-11 08:44 | 47.75909 | -18.10993 | 34047 ft | 420 kts | 247° |
| 2026-04-11 08:44 | 47.72987 | -18.18519 | 34059 ft | 420 kts | 247° |
| 2026-04-11 08:45 | 47.70059 | -18.26038 | 34063 ft | 420 kts | 247° |
| 2026-04-11 08:45 | 47.67127 | -18.33547 | 34075 ft | 420 kts | 247° |
| 2026-04-11 08:46 | 47.64689 | -18.39776 | 34070 ft | 420 kts | 247° |
| 2026-04-11 08:46 | 47.61753 | -18.47255 | 34071 ft | 419 kts | 247° |
| 2026-04-11 08:47 | 47.58816 | -18.54720 | 34080 ft | 419 kts | 247° |
| 2026-04-11 08:47 | 47.55875 | -18.62172 | 34083 ft | 419 kts | 247° |
| 2026-04-11 08:48 | 47.52932 | -18.69607 | 34051 ft | 418 kts | 247° |
| 2026-04-11 08:48 | 47.49992 | -18.77014 | 34090 ft | 417 kts | 247° |
| 2026-04-11 08:49 | 47.47055 | -18.84398 | 34114 ft | 416 kts | 247° |
| 2026-04-11 08:49 | 47.44113 | -18.91772 | 34106 ft | 416 kts | 246° |
| 2026-04-11 08:50 | 47.41167 | -18.99135 | 34109 ft | 417 kts | 246° |
| 2026-04-11 08:50 | 47.38215 | -19.06493 | 34109 ft | 416 kts | 246° |
| 2026-04-11 08:51 | 47.35261 | -19.13837 | 34118 ft | 416 kts | 246° |
| 2026-04-11 08:51 | 47.32302 | -19.21173 | 34117 ft | 416 kts | 246° |
| 2026-04-11 08:52 | 47.27848 | -19.32178 | 34127 ft | 417 kts | 246° |
| 2026-04-11 08:52 | 47.24873 | -19.39506 | 34094 ft | 416 kts | 246° |
| 2026-04-11 08:53 | 47.21919 | -19.46758 | 34126 ft | 415 kts | 246° |
| 2026-04-11 08:53 | 47.18946 | -19.54041 | 34140 ft | 415 kts | 246° |
| 2026-04-11 08:54 | 47.15949 | -19.61363 | 34146 ft | 415 kts | 246° |
| 2026-04-11 08:54 | 47.12986 | -19.68581 | 34153 ft | 415 kts | 246° |
| 2026-04-11 08:55 | 47.09998 | -19.75843 | 34147 ft | 415 kts | 246° |
| 2026-04-11 08:55 | 47.07005 | -19.83095 | 34163 ft | 415 kts | 246° |
| 2026-04-11 08:56 | 47.04012 | -19.90335 | 34165 ft | 415 kts | 246° |
| 2026-04-11 08:56 | 47.00906 | -19.97493 | 34173 ft | 420 kts | 241° |
| 2026-04-11 08:57 | 46.97064 | -20.04044 | 34177 ft | 429 kts | 233° |
| 2026-04-11 08:57 | 46.92663 | -20.10003 | 34177 ft | 431 kts | 232° |
| 2026-04-11 08:58 | 46.88249 | -20.15924 | 34195 ft | 430 kts | 232° |
| 2026-04-11 08:58 | 46.83848 | -20.21838 | 34167 ft | 430 kts | 232° |
| 2026-04-11 08:59 | 46.79455 | -20.27741 | 34195 ft | 429 kts | 232° |
| 2026-04-11 08:59 | 46.75070 | -20.33627 | 34170 ft | 428 kts | 231° |
| 2026-04-11 09:00 | 46.70688 | -20.39497 | 34220 ft | 428 kts | 231° |
| 2026-04-11 09:00 | 46.66301 | -20.45359 | 34219 ft | 428 kts | 231° |
| 2026-04-11 09:01 | 46.61908 | -20.51218 | 34221 ft | 428 kts | 231° |
| 2026-04-11 09:01 | 46.57511 | -20.57065 | 34227 ft | 429 kts | 231° |
| 2026-04-11 09:02 | 46.53109 | -20.62905 | 34200 ft | 428 kts | 231° |
| 2026-04-11 09:02 | 46.48735 | -20.68696 | 34226 ft | 428 kts | 231° |
| 2026-04-11 09:03 | 46.44331 | -20.74514 | 34238 ft | 429 kts | 231° |
| 2026-04-11 09:03 | 46.39919 | -20.80329 | 34236 ft | 429 kts | 231° |
| 2026-04-11 09:04 | 46.35497 | -20.86144 | 34248 ft | 429 kts | 231° |
| 2026-04-11 09:04 | 46.31071 | -20.91950 | 34247 ft | 430 kts | 231° |
| 2026-04-11 09:05 | 46.26641 | -20.97747 | 34227 ft | 430 kts | 231° |
| 2026-04-11 09:05 | 46.22208 | -21.03536 | 34252 ft | 430 kts | 231° |
| 2026-04-11 09:06 | 46.17765 | -21.09326 | 34277 ft | 430 kts | 231° |
| 2026-04-11 09:06 | 46.13313 | -21.15114 | 34259 ft | 431 kts | 231° |
| 2026-04-11 09:07 | 46.08855 | -21.20897 | 34279 ft | 432 kts | 231° |
| 2026-04-11 09:07 | 46.04380 | -21.26688 | 34281 ft | 433 kts | 231° |
| 2026-04-11 09:08 | 45.99898 | -21.32474 | 34283 ft | 433 kts | 231° |
| 2026-04-11 09:08 | 45.95411 | -21.38253 | 34282 ft | 432 kts | 230° |
| 2026-04-11 09:09 | 45.90924 | -21.44020 | 34285 ft | 433 kts | 230° |
| 2026-04-11 09:09 | 45.86429 | -21.49785 | 34294 ft | 434 kts | 230° |
| 2026-04-11 09:10 | 45.81919 | -21.55556 | 34300 ft | 435 kts | 230° |
| 2026-04-11 09:10 | 45.77396 | -21.61330 | 34307 ft | 436 kts | 230° |
| 2026-04-11 09:11 | 45.72893 | -21.67066 | 34306 ft | 436 kts | 230° |
| 2026-04-11 09:11 | 45.68355 | -21.72832 | 34284 ft | 436 kts | 230° |
| 2026-04-11 09:12 | 45.63816 | -21.78587 | 34312 ft | 437 kts | 230° |
| 2026-04-11 09:12 | 45.59259 | -21.84353 | 34323 ft | 438 kts | 230° |
| 2026-04-11 09:13 | 45.54692 | -21.90119 | 34333 ft | 439 kts | 230° |
| 2026-04-11 09:13 | 45.50112 | -21.95886 | 34335 ft | 439 kts | 230° |
| 2026-04-11 09:14 | 45.45525 | -22.01649 | 34341 ft | 440 kts | 230° |
| 2026-04-11 09:14 | 45.40926 | -22.07415 | 34310 ft | 440 kts | 230° |
| 2026-04-11 09:15 | 45.36327 | -22.13167 | 34340 ft | 440 kts | 230° |
| 2026-04-11 09:15 | 45.31723 | -22.18913 | 34338 ft | 441 kts | 230° |
| 2026-04-11 09:16 | 45.27115 | -22.24653 | 34356 ft | 441 kts | 230° |
| 2026-04-11 09:16 | 45.22498 | -22.30391 | 34365 ft | 442 kts | 229° |
| 2026-04-11 09:17 | 45.17872 | -22.36126 | 34364 ft | 442 kts | 229° |
| 2026-04-11 09:17 | 45.13237 | -22.41859 | 34334 ft | 442 kts | 229° |
| 2026-04-11 09:18 | 45.08604 | -22.47575 | 34369 ft | 442 kts | 229° |
| 2026-04-11 09:18 | 45.03957 | -22.53299 | 34381 ft | 443 kts | 229° |
| 2026-04-11 09:19 | 44.99293 | -22.59030 | 34389 ft | 445 kts | 229° |
| 2026-04-11 09:19 | 44.94615 | -22.64766 | 34386 ft | 446 kts | 229° |
| 2026-04-11 09:20 | 44.89930 | -22.70495 | 34379 ft | 446 kts | 229° |
| 2026-04-11 09:20 | 44.85237 | -22.76221 | 34351 ft | 446 kts | 229° |
| 2026-04-11 09:21 | 44.80575 | -22.81897 | 34381 ft | 447 kts | 229° |
| 2026-04-11 09:21 | 44.75871 | -22.87614 | 34413 ft | 447 kts | 229° |
| 2026-04-11 09:22 | 44.71155 | -22.93331 | 34389 ft | 448 kts | 229° |
| 2026-04-11 09:22 | 44.66435 | -22.99045 | 34409 ft | 448 kts | 229° |
| 2026-04-11 09:23 | 44.61712 | -23.04746 | 34409 ft | 448 kts | 229° |
| 2026-04-11 09:23 | 44.56984 | -23.10439 | 34394 ft | 448 kts | 229° |
| 2026-04-11 09:24 | 44.52255 | -23.16119 | 34412 ft | 448 kts | 229° |
| 2026-04-11 09:24 | 44.47518 | -23.21797 | 34413 ft | 448 kts | 229° |
| 2026-04-11 09:25 | 44.42780 | -23.27465 | 34422 ft | 449 kts | 229° |
| 2026-04-11 09:25 | 44.38027 | -23.33137 | 34423 ft | 449 kts | 229° |
| 2026-04-11 09:26 | 44.33263 | -23.38807 | 34429 ft | 450 kts | 229° |
| 2026-04-11 09:26 | 44.28489 | -23.44478 | 34430 ft | 450 kts | 229° |
| 2026-04-11 09:27 | 44.23718 | -23.50134 | 34432 ft | 450 kts | 229° |
| 2026-04-11 09:27 | 44.18941 | -23.55786 | 34439 ft | 450 kts | 228° |
| 2026-04-11 09:28 | 44.14160 | -23.61428 | 34438 ft | 450 kts | 228° |
| 2026-04-11 09:28 | 44.09389 | -23.67047 | 34449 ft | 449 kts | 228° |
| 2026-04-11 09:29 | 44.04609 | -23.72666 | 34441 ft | 450 kts | 228° |
| 2026-04-11 09:29 | 43.99822 | -23.78280 | 34442 ft | 450 kts | 228° |
| 2026-04-11 09:30 | 43.95032 | -23.83885 | 34452 ft | 451 kts | 228° |
| 2026-04-11 09:30 | 43.90231 | -23.89489 | 34444 ft | 451 kts | 228° |
| 2026-04-11 09:31 | 43.85422 | -23.95092 | 34459 ft | 452 kts | 228° |
| 2026-04-11 09:31 | 43.81418 | -23.99748 | 34453 ft | 453 kts | 228° |
| 2026-04-11 09:32 | 43.76587 | -24.05354 | 34429 ft | 453 kts | 228° |
| 2026-04-11 09:32 | 43.70971 | -24.11854 | 34453 ft | 453 kts | 228° |
| 2026-04-11 09:33 | 43.66915 | -24.16539 | 34465 ft | 454 kts | 228° |
| 2026-04-11 09:33 | 43.62067 | -24.22128 | 34469 ft | 454 kts | 228° |
| 2026-04-11 09:34 | 43.57240 | -24.27681 | 34475 ft | 455 kts | 228° |
| 2026-04-11 09:34 | 43.52373 | -24.33266 | 34454 ft | 455 kts | 228° |
| 2026-04-11 09:35 | 43.47511 | -24.38834 | 34468 ft | 455 kts | 228° |
| 2026-04-11 09:35 | 43.42640 | -24.44401 | 34474 ft | 455 kts | 227° |
| 2026-04-11 09:36 | 43.37764 | -24.49962 | 34475 ft | 456 kts | 227° |
| 2026-04-11 09:36 | 43.32879 | -24.55521 | 34481 ft | 456 kts | 227° |
| 2026-04-11 09:37 | 43.27991 | -24.61070 | 34489 ft | 456 kts | 227° |
| 2026-04-11 09:37 | 43.23093 | -24.66620 | 34464 ft | 457 kts | 227° |
| 2026-04-11 09:38 | 43.18191 | -24.72161 | 34491 ft | 457 kts | 227° |
| 2026-04-11 09:38 | 43.13284 | -24.77698 | 34484 ft | 457 kts | 227° |
| 2026-04-11 09:39 | 43.08366 | -24.83234 | 34500 ft | 458 kts | 227° |
| 2026-04-11 09:39 | 43.03444 | -24.88763 | 34504 ft | 458 kts | 227° |
| 2026-04-11 09:40 | 42.98514 | -24.94289 | 34505 ft | 459 kts | 227° |
| 2026-04-11 09:40 | 42.93609 | -24.99774 | 34485 ft | 458 kts | 227° |
| 2026-04-11 09:41 | 42.88672 | -25.05285 | 34499 ft | 459 kts | 227° |
| 2026-04-11 09:41 | 42.83720 | -25.10801 | 34503 ft | 460 kts | 227° |
| 2026-04-11 09:42 | 42.78758 | -25.16315 | 34504 ft | 461 kts | 227° |
| 2026-04-11 09:43 | 42.71301 | -25.24580 | 34516 ft | 461 kts | 227° |
| 2026-04-11 09:43 | 42.66318 | -25.30089 | 34512 ft | 462 kts | 227° |
| 2026-04-11 09:44 | 42.61329 | -25.35592 | 34523 ft | 462 kts | 227° |
| 2026-04-11 09:44 | 42.56329 | -25.41095 | 34501 ft | 463 kts | 227° |
| 2026-04-11 09:45 | 42.51324 | -25.46593 | 34514 ft | 463 kts | 227° |
| 2026-04-11 09:45 | 42.46307 | -25.52092 | 34523 ft | 464 kts | 227° |
| 2026-04-11 09:46 | 42.41282 | -25.57587 | 34514 ft | 464 kts | 226° |
| 2026-04-11 09:46 | 42.36248 | -25.63081 | 34525 ft | 465 kts | 226° |
| 2026-04-11 09:47 | 42.31213 | -25.68564 | 34532 ft | 465 kts | 226° |
| 2026-04-11 09:47 | 42.26163 | -25.74052 | 34531 ft | 466 kts | 226° |
| 2026-04-11 09:48 | 42.21113 | -25.79529 | 34537 ft | 466 kts | 226° |
| 2026-04-11 09:48 | 42.16092 | -25.84962 | 34526 ft | 465 kts | 226° |
| 2026-04-11 09:49 | 42.11008 | -25.90452 | 34535 ft | 466 kts | 226° |
| 2026-04-11 09:49 | 42.05950 | -25.95903 | 34535 ft | 466 kts | 226° |
| 2026-04-11 09:50 | 42.00882 | -26.01354 | 34506 ft | 466 kts | 226° |
| 2026-04-11 09:50 | 41.95810 | -26.06796 | 34532 ft | 467 kts | 226° |
| 2026-04-11 09:51 | 41.90764 | -26.12201 | 34526 ft | 467 kts | 226° |
| 2026-04-11 09:51 | 41.85673 | -26.17641 | 34551 ft | 469 kts | 226° |
| 2026-04-11 09:52 | 41.80566 | -26.23087 | 34553 ft | 469 kts | 226° |
| 2026-04-11 09:52 | 41.75447 | -26.28534 | 34537 ft | 470 kts | 226° |
| 2026-04-11 09:53 | 41.70321 | -26.33977 | 34543 ft | 470 kts | 226° |
| 2026-04-11 09:53 | 41.65187 | -26.39417 | 34551 ft | 471 kts | 226° |
| 2026-04-11 09:54 | 41.60050 | -26.44850 | 34549 ft | 471 kts | 226° |
| 2026-04-11 09:54 | 41.54906 | -26.50278 | 34552 ft | 471 kts | 226° |
| 2026-04-11 09:55 | 41.49763 | -26.55693 | 34550 ft | 471 kts | 226° |
| 2026-04-11 09:55 | 41.44619 | -26.61098 | 34544 ft | 470 kts | 226° |
| 2026-04-11 09:56 | 41.39479 | -26.66490 | 34526 ft | 470 kts | 226° |
| 2026-04-11 09:56 | 41.34333 | -26.71875 | 34537 ft | 470 kts | 226° |
| 2026-04-11 09:57 | 41.29184 | -26.77253 | 34548 ft | 471 kts | 225° |
| 2026-04-11 09:57 | 41.24022 | -26.82634 | 34545 ft | 472 kts | 225° |
| 2026-04-11 09:58 | 41.18854 | -26.88008 | 34528 ft | 472 kts | 226° |
| 2026-04-11 09:58 | 41.13682 | -26.93376 | 34525 ft | 472 kts | 226° |
| 2026-04-11 09:59 | 41.08537 | -26.98705 | 34551 ft | 472 kts | 226° |
| 2026-04-11 09:59 | 41.03354 | -27.04063 | 34553 ft | 473 kts | 226° |
| 2026-04-11 10:00 | 40.98166 | -27.09414 | 34552 ft | 473 kts | 226° |
| 2026-04-11 10:00 | 40.92977 | -27.14756 | 34559 ft | 473 kts | 226° |
| 2026-04-11 10:01 | 40.87781 | -27.20091 | 34531 ft | 472 kts | 227° |
| 2026-04-11 10:01 | 40.82597 | -27.25407 | 34555 ft | 472 kts | 227° |
| 2026-04-11 10:02 | 40.77402 | -27.30724 | 34559 ft | 473 kts | 227° |
| 2026-04-11 10:02 | 40.72204 | -27.36033 | 34558 ft | 473 kts | 226° |
| 2026-04-11 10:03 | 40.66993 | -27.41343 | 34561 ft | 473 kts | 226° |
| 2026-04-11 10:03 | 40.61779 | -27.46644 | 34522 ft | 474 kts | 227° |
| 2026-04-11 10:04 | 40.56564 | -27.51931 | 34558 ft | 473 kts | 229° |
| 2026-04-11 10:04 | 40.51350 | -27.57217 | 34557 ft | 474 kts | 229° |
| 2026-04-11 10:05 | 40.46127 | -27.62499 | 34565 ft | 474 kts | 229° |
| 2026-04-11 10:05 | 40.40887 | -27.67785 | 34564 ft | 475 kts | 229° |
| 2026-04-11 10:06 | 40.35647 | -27.73059 | 34565 ft | 475 kts | 229° |
| 2026-04-11 10:06 | 40.30405 | -27.78323 | 34533 ft | 474 kts | 230° |
| 2026-04-11 10:07 | 40.25171 | -27.83570 | 34556 ft | 473 kts | 230° |
| 2026-04-11 10:07 | 40.19947 | -27.88797 | 34560 ft | 472 kts | 230° |
| 2026-04-11 10:08 | 40.14732 | -27.94005 | 34561 ft | 471 kts | 230° |
| 2026-04-11 10:08 | 40.09560 | -27.99161 | 34567 ft | 471 kts | 230° |
| 2026-04-11 10:09 | 40.04360 | -28.04334 | 34554 ft | 469 kts | 229° |
| 2026-04-11 10:09 | 39.99169 | -28.09489 | 34538 ft | 468 kts | 228° |
| 2026-04-11 10:10 | 39.93993 | -28.14616 | 34557 ft | 467 kts | 228° |
| 2026-04-11 10:10 | 39.88827 | -28.19726 | 34565 ft | 466 kts | 228° |
| 2026-04-11 10:11 | 39.83661 | -28.24825 | 34564 ft | 466 kts | 228° |
| 2026-04-11 10:11 | 39.78496 | -28.29915 | 34573 ft | 466 kts | 227° |
| 2026-04-11 10:12 | 39.73328 | -28.34997 | 34566 ft | 466 kts | 227° |
| 2026-04-11 10:12 | 39.68147 | -28.40083 | 34568 ft | 467 kts | 227° |
| 2026-04-11 10:13 | 39.62957 | -28.45167 | 34566 ft | 468 kts | 227° |
| 2026-04-11 10:13 | 39.57757 | -28.50249 | 34567 ft | 468 kts | 227° |
| 2026-04-11 10:14 | 39.52549 | -28.55330 | 34554 ft | 469 kts | 227° |
| 2026-04-11 10:14 | 39.47339 | -28.60402 | 34564 ft | 469 kts | 227° |
| 2026-04-11 10:15 | 39.42125 | -28.65470 | 34567 ft | 469 kts | 227° |
| 2026-04-11 10:15 | 39.36939 | -28.70501 | 34568 ft | 469 kts | 226° |
| 2026-04-11 10:16 | 39.31709 | -28.75566 | 34574 ft | 470 kts | 226° |
| 2026-04-11 10:16 | 39.26470 | -28.80629 | 34540 ft | 471 kts | 226° |
| 2026-04-11 10:17 | 39.21212 | -28.85701 | 34572 ft | 472 kts | 226° |
| 2026-04-11 10:17 | 39.15946 | -28.90771 | 34569 ft | 473 kts | 226° |
| 2026-04-11 10:18 | 39.10664 | -28.95846 | 34536 ft | 474 kts | 226° |
| 2026-04-11 10:18 | 39.05372 | -29.00919 | 34560 ft | 475 kts | 226° |
| 2026-04-11 10:19 | 39.00073 | -29.05992 | 34567 ft | 476 kts | 226° |
| 2026-04-11 10:19 | 38.94757 | -29.11070 | 34568 ft | 476 kts | 226° |
| 2026-04-11 10:20 | 38.89429 | -29.16151 | 34567 ft | 477 kts | 226° |
| 2026-04-11 10:20 | 38.84999 | -29.20366 | 34565 ft | 477 kts | 226° |
| 2026-04-11 10:21 | 38.79668 | -29.25431 | 34535 ft | 477 kts | 226° |
| 2026-04-11 10:21 | 38.73466 | -29.31311 | 34539 ft | 477 kts | 226° |
| 2026-04-11 10:22 | 38.68124 | -29.36367 | 34565 ft | 478 kts | 226° |
| 2026-04-11 10:22 | 38.63635 | -29.40609 | 34567 ft | 479 kts | 226° |
| 2026-04-11 10:23 | 38.58262 | -29.45676 | 34568 ft | 480 kts | 226° |
| 2026-04-11 10:23 | 38.52874 | -29.50746 | 34566 ft | 481 kts | 226° |
| 2026-04-11 10:24 | 38.47478 | -29.55815 | 34560 ft | 482 kts | 226° |
| 2026-04-11 10:24 | 38.42067 | -29.60889 | 34557 ft | 484 kts | 226° |
| 2026-04-11 10:25 | 38.36620 | -29.65988 | 34565 ft | 487 kts | 226° |
| 2026-04-11 10:25 | 38.31145 | -29.71102 | 34573 ft | 489 kts | 226° |
| 2026-04-11 10:26 | 38.25677 | -29.76198 | 34573 ft | 491 kts | 226° |
| 2026-04-11 10:26 | 38.20158 | -29.81331 | 34566 ft | 492 kts | 226° |
| 2026-04-11 10:27 | 38.14638 | -29.86455 | 34553 ft | 491 kts | 226° |
| 2026-04-11 10:27 | 38.09112 | -29.91576 | 34562 ft | 492 kts | 226° |
| 2026-04-11 10:28 | 38.03585 | -29.96690 | 34560 ft | 492 kts | 226° |
| 2026-04-11 10:28 | 37.98321 | -30.02109 | 34562 ft | 479 kts | 235° |
| 2026-04-11 10:29 | 37.93807 | -30.08248 | 34554 ft | 476 kts | 237° |
| 2026-04-11 10:29 | 37.89305 | -30.14400 | 34538 ft | 476 kts | 237° |
| 2026-04-11 10:30 | 37.84780 | -30.20518 | 34554 ft | 477 kts | 236° |
| 2026-04-11 10:30 | 37.80223 | -30.26637 | 34565 ft | 478 kts | 236° |
| 2026-04-11 10:31 | 37.75650 | -30.32760 | 34566 ft | 480 kts | 236° |
| 2026-04-11 10:31 | 37.71060 | -30.38893 | 34564 ft | 481 kts | 236° |
| 2026-04-11 10:32 | 37.66465 | -30.45024 | 34552 ft | 481 kts | 235° |
| 2026-04-11 10:32 | 37.61863 | -30.51151 | 34563 ft | 481 kts | 235° |
| 2026-04-11 10:33 | 37.57262 | -30.57266 | 34563 ft | 481 kts | 235° |
| 2026-04-11 10:33 | 37.52658 | -30.63374 | 34552 ft | 480 kts | 234° |
| 2026-04-11 10:34 | 37.48057 | -30.69467 | 34541 ft | 480 kts | 234° |
| 2026-04-11 10:34 | 37.43456 | -30.75547 | 34554 ft | 479 kts | 234° |
| 2026-04-11 10:35 | 37.38857 | -30.81613 | 34561 ft | 479 kts | 234° |
| 2026-04-11 10:35 | 37.34258 | -30.87668 | 34561 ft | 478 kts | 234° |
| 2026-04-11 10:36 | 37.29660 | -30.93711 | 34561 ft | 478 kts | 234° |
| 2026-04-11 10:36 | 37.25061 | -30.99743 | 34547 ft | 478 kts | 233° |
| 2026-04-11 10:37 | 37.20462 | -31.05765 | 34544 ft | 478 kts | 233° |
| 2026-04-11 10:37 | 37.15886 | -31.11744 | 34561 ft | 478 kts | 233° |
| 2026-04-11 10:38 | 37.11268 | -31.17768 | 34554 ft | 480 kts | 233° |
| 2026-04-11 10:38 | 37.04321 | -31.26808 | 34559 ft | 481 kts | 233° |
| 2026-04-11 10:39 | 36.99676 | -31.32837 | 34551 ft | 481 kts | 233° |
| 2026-04-11 10:39 | 36.95026 | -31.38861 | 34555 ft | 481 kts | 233° |
| 2026-04-11 10:40 | 36.90370 | -31.44883 | 34548 ft | 481 kts | 233° |
| 2026-04-11 10:40 | 36.85717 | -31.50889 | 34546 ft | 481 kts | 232° |
| 2026-04-11 10:41 | 36.81060 | -31.56890 | 34553 ft | 481 kts | 232° |
| 2026-04-11 10:41 | 36.76393 | -31.62892 | 34556 ft | 482 kts | 232° |
| 2026-04-11 10:42 | 36.71720 | -31.68891 | 34535 ft | 483 kts | 232° |
| 2026-04-11 10:42 | 36.67039 | -31.74888 | 34546 ft | 483 kts | 232° |
| 2026-04-11 10:43 | 36.60009 | -31.83873 | 34541 ft | 483 kts | 232° |
| 2026-04-11 10:44 | 36.55319 | -31.89855 | 34523 ft | 483 kts | 231° |
| 2026-04-11 10:44 | 36.50626 | -31.95829 | 34542 ft | 483 kts | 231° |
| 2026-04-11 10:45 | 36.45918 | -32.01811 | 34544 ft | 484 kts | 231° |
| 2026-04-11 10:45 | 36.41200 | -32.07794 | 34529 ft | 485 kts | 231° |
| 2026-04-11 10:46 | 36.36475 | -32.13776 | 34540 ft | 486 kts | 231° |
| 2026-04-11 10:46 | 36.31739 | -32.19760 | 34543 ft | 486 kts | 231° |
| 2026-04-11 10:47 | 36.27025 | -32.25706 | 34543 ft | 487 kts | 231° |
| 2026-04-11 10:47 | 36.22280 | -32.31680 | 34541 ft | 487 kts | 231° |
| 2026-04-11 10:48 | 36.17542 | -32.37632 | 34535 ft | 484 kts | 231° |
| 2026-04-11 10:48 | 36.12825 | -32.43547 | 34539 ft | 482 kts | 231° |
| 2026-04-11 10:49 | 36.08119 | -32.49440 | 34534 ft | 481 kts | 231° |
| 2026-04-11 10:49 | 36.03420 | -32.55314 | 34535 ft | 480 kts | 231° |
| 2026-04-11 10:50 | 35.98725 | -32.61172 | 34538 ft | 480 kts | 231° |
| 2026-04-11 10:50 | 35.94027 | -32.67023 | 34545 ft | 480 kts | 231° |
| 2026-04-11 10:51 | 35.89319 | -32.72877 | 34546 ft | 481 kts | 231° |
| 2026-04-11 10:51 | 35.84598 | -32.78735 | 34544 ft | 482 kts | 230° |
| 2026-04-11 10:52 | 35.79870 | -32.84592 | 34551 ft | 482 kts | 230° |
| 2026-04-11 10:52 | 35.75130 | -32.90452 | 34540 ft | 483 kts | 230° |
| 2026-04-11 10:53 | 35.70382 | -32.96311 | 34547 ft | 483 kts | 230° |
| 2026-04-11 10:53 | 35.65631 | -33.02164 | 34548 ft | 484 kts | 230° |
| 2026-04-11 10:54 | 35.60875 | -33.08013 | 34550 ft | 484 kts | 230° |
| 2026-04-11 10:54 | 35.56117 | -33.13855 | 34551 ft | 484 kts | 230° |
| 2026-04-11 10:55 | 35.51352 | -33.19694 | 34530 ft | 484 kts | 230° |
| 2026-04-11 10:55 | 35.46569 | -33.25546 | 34547 ft | 486 kts | 230° |
| 2026-04-11 10:56 | 35.41763 | -33.31415 | 34552 ft | 488 kts | 230° |
| 2026-04-11 10:56 | 35.36969 | -33.37258 | 34550 ft | 490 kts | 229° |
| 2026-04-11 10:57 | 35.32130 | -33.43146 | 34536 ft | 491 kts | 229° |
| 2026-04-11 10:57 | 35.27283 | -33.49031 | 34550 ft | 491 kts | 229° |
| 2026-04-11 10:58 | 35.22430 | -33.54914 | 34550 ft | 491 kts | 229° |
| 2026-04-11 10:58 | 35.17578 | -33.60788 | 34536 ft | 491 kts | 229° |
| 2026-04-11 10:59 | 35.12718 | -33.66658 | 34551 ft | 491 kts | 229° |
| 2026-04-11 10:59 | 35.07847 | -33.72534 | 34544 ft | 492 kts | 229° |
| 2026-04-11 11:00 | 35.02968 | -33.78407 | 34552 ft | 493 kts | 229° |
| 2026-04-11 11:00 | 34.98071 | -33.84291 | 34554 ft | 494 kts | 229° |
| 2026-04-11 11:01 | 34.93164 | -33.90177 | 34553 ft | 495 kts | 229° |
| 2026-04-11 11:01 | 34.88251 | -33.96060 | 34549 ft | 495 kts | 229° |
| 2026-04-11 11:02 | 34.83331 | -34.01941 | 34539 ft | 496 kts | 228° |
| 2026-04-11 11:02 | 34.78408 | -34.07814 | 34552 ft | 496 kts | 228° |
| 2026-04-11 11:03 | 34.73482 | -34.13682 | 34550 ft | 496 kts | 228° |
| 2026-04-11 11:03 | 34.68546 | -34.19550 | 34550 ft | 496 kts | 228° |
| 2026-04-11 11:04 | 34.63602 | -34.25419 | 34544 ft | 497 kts | 228° |
| 2026-04-11 11:04 | 34.58654 | -34.31281 | 34555 ft | 498 kts | 227° |
| 2026-04-11 11:05 | 34.53695 | -34.37146 | 34553 ft | 498 kts | 227° |
| 2026-04-11 11:05 | 34.48726 | -34.43014 | 34543 ft | 499 kts | 227° |
| 2026-04-11 11:06 | 34.44592 | -34.47887 | 34546 ft | 499 kts | 227° |
| 2026-04-11 11:06 | 34.38789 | -34.54714 | 34550 ft | 501 kts | 227° |
| 2026-04-11 11:07 | 34.33781 | -34.60595 | 34549 ft | 502 kts | 227° |
| 2026-04-11 11:07 | 34.29573 | -34.65530 | 34546 ft | 503 kts | 227° |
| 2026-04-11 11:08 | 34.24582 | -34.71371 | 34543 ft | 503 kts | 227° |
| 2026-04-11 11:08 | 34.19544 | -34.77260 | 34559 ft | 505 kts | 226° |
| 2026-04-11 11:08 | 34.17020 | -34.80205 | 34736 ft | 505 kts | 226° |
| 2026-04-11 11:09 | 34.14492 | -34.83153 | 34949 ft | 505 kts | 226° |
| 2026-04-11 11:09 | 34.11968 | -34.86094 | 35203 ft | 504 kts | 226° |
| 2026-04-11 11:09 | 34.09446 | -34.89028 | 35451 ft | 503 kts | 226° |
| 2026-04-11 11:09 | 34.06930 | -34.91954 | 35658 ft | 503 kts | 226° |
| 2026-04-11 11:10 | 34.04412 | -34.94881 | 35859 ft | 503 kts | 226° |
| 2026-04-11 11:10 | 34.01895 | -34.97804 | 36028 ft | 503 kts | 226° |
| 2026-04-11 11:10 | 33.99394 | -35.00761 | 36206 ft | 503 kts | 229° |
| 2026-04-11 11:10 | 33.97028 | -35.03861 | 36343 ft | 503 kts | 230° |
| 2026-04-11 11:11 | 33.94692 | -35.06997 | 36462 ft | 503 kts | 230° |
| 2026-04-11 11:11 | 33.90030 | -35.13298 | 36539 ft | 504 kts | 230° |
| 2026-04-11 11:12 | 33.85352 | -35.19582 | 36534 ft | 503 kts | 230° |
| 2026-04-11 11:12 | 33.80678 | -35.25816 | 36540 ft | 501 kts | 230° |
| 2026-04-11 11:13 | 33.76004 | -35.32030 | 36542 ft | 501 kts | 229° |
| 2026-04-11 11:13 | 33.71332 | -35.38227 | 36541 ft | 500 kts | 229° |
| 2026-04-11 11:14 | 33.66650 | -35.44429 | 36542 ft | 501 kts | 229° |
| 2026-04-11 11:14 | 33.61967 | -35.50624 | 36531 ft | 502 kts | 229° |
| 2026-04-11 11:15 | 33.57271 | -35.56825 | 36536 ft | 502 kts | 229° |
| 2026-04-11 11:15 | 33.52561 | -35.63033 | 36538 ft | 503 kts | 229° |
| 2026-04-11 11:16 | 33.47844 | -35.69240 | 36536 ft | 504 kts | 229° |
| 2026-04-11 11:16 | 33.43116 | -35.75450 | 36535 ft | 505 kts | 229° |
| 2026-04-11 11:17 | 33.38380 | -35.81660 | 36535 ft | 505 kts | 228° |
| 2026-04-11 11:17 | 33.33644 | -35.87858 | 36533 ft | 505 kts | 228° |
| 2026-04-11 11:18 | 33.28906 | -35.94048 | 36535 ft | 504 kts | 228° |
| 2026-04-11 11:18 | 33.24167 | -36.00229 | 36531 ft | 504 kts | 228° |
| 2026-04-11 11:19 | 33.19459 | -36.06361 | 36531 ft | 503 kts | 228° |
| 2026-04-11 11:19 | 33.14723 | -36.12517 | 36529 ft | 503 kts | 228° |
| 2026-04-11 11:20 | 33.09989 | -36.18660 | 36527 ft | 503 kts | 228° |
| 2026-04-11 11:20 | 33.05249 | -36.24799 | 36529 ft | 503 kts | 228° |
| 2026-04-11 11:21 | 33.00507 | -36.30933 | 36525 ft | 503 kts | 227° |
| 2026-04-11 11:21 | 32.95765 | -36.37055 | 36524 ft | 503 kts | 227° |
| 2026-04-11 11:22 | 32.91014 | -36.43177 | 36524 ft | 503 kts | 227° |
| 2026-04-11 11:22 | 32.86264 | -36.49288 | 36524 ft | 503 kts | 227° |
| 2026-04-11 11:23 | 32.81510 | -36.55395 | 36528 ft | 503 kts | 227° |
| 2026-04-11 11:23 | 32.76753 | -36.61494 | 36523 ft | 503 kts | 227° |
| 2026-04-11 11:24 | 32.71993 | -36.67588 | 36518 ft | 503 kts | 227° |
| 2026-04-11 11:24 | 32.67229 | -36.73676 | 36521 ft | 503 kts | 227° |
| 2026-04-11 11:25 | 32.62455 | -36.79767 | 36524 ft | 503 kts | 227° |
| 2026-04-11 11:25 | 32.57717 | -36.85801 | 36520 ft | 503 kts | 227° |
| 2026-04-11 11:26 | 32.52943 | -36.91872 | 36516 ft | 503 kts | 227° |
| 2026-04-11 11:26 | 32.48167 | -36.97934 | 36517 ft | 503 kts | 227° |
| 2026-04-11 11:27 | 32.43386 | -37.03993 | 36517 ft | 503 kts | 227° |
| 2026-04-11 11:27 | 32.38605 | -37.10042 | 36516 ft | 503 kts | 227° |
| 2026-04-11 11:28 | 32.33818 | -37.16088 | 36515 ft | 503 kts | 227° |
| 2026-04-11 11:28 | 32.29027 | -37.22129 | 36513 ft | 504 kts | 227° |
| 2026-04-11 11:29 | 32.21831 | -37.31184 | 36509 ft | 504 kts | 227° |
| 2026-04-11 11:29 | 32.17032 | -37.37211 | 36510 ft | 504 kts | 226° |
| 2026-04-11 11:30 | 32.12227 | -37.43235 | 36509 ft | 504 kts | 226° |
| 2026-04-11 11:30 | 32.07418 | -37.49254 | 36506 ft | 504 kts | 226° |
| 2026-04-11 11:31 | 32.02604 | -37.55270 | 36507 ft | 504 kts | 226° |
| 2026-04-11 11:31 | 31.97788 | -37.61278 | 36507 ft | 504 kts | 226° |
| 2026-04-11 11:32 | 31.92964 | -37.67287 | 36505 ft | 504 kts | 226° |
| 2026-04-11 11:32 | 31.88141 | -37.73285 | 36501 ft | 505 kts | 226° |
| 2026-04-11 11:33 | 31.83307 | -37.79286 | 36498 ft | 505 kts | 226° |
| 2026-04-11 11:33 | 31.78464 | -37.85288 | 36501 ft | 506 kts | 226° |
| 2026-04-11 11:34 | 31.73649 | -37.91246 | 36495 ft | 507 kts | 226° |
| 2026-04-11 11:34 | 31.68790 | -37.97248 | 36492 ft | 507 kts | 226° |
| 2026-04-11 11:35 | 31.63924 | -38.03250 | 36498 ft | 507 kts | 226° |
| 2026-04-11 11:35 | 31.59056 | -38.09245 | 36497 ft | 507 kts | 226° |
| 2026-04-11 11:36 | 31.54184 | -38.15235 | 36494 ft | 507 kts | 226° |
| 2026-04-11 11:36 | 31.49308 | -38.21219 | 36492 ft | 508 kts | 226° |
| 2026-04-11 11:37 | 31.44425 | -38.27204 | 36498 ft | 508 kts | 226° |
| 2026-04-11 11:37 | 31.39539 | -38.33181 | 36490 ft | 508 kts | 226° |
| 2026-04-11 11:38 | 31.34646 | -38.39158 | 36493 ft | 509 kts | 226° |
| 2026-04-11 11:38 | 31.29748 | -38.45131 | 36487 ft | 509 kts | 226° |
| 2026-04-11 11:39 | 31.24846 | -38.51100 | 36487 ft | 509 kts | 225° |
| 2026-04-11 11:39 | 31.19935 | -38.57070 | 36483 ft | 509 kts | 225° |
| 2026-04-11 11:40 | 31.15055 | -38.62993 | 36481 ft | 509 kts | 225° |
| 2026-04-11 11:40 | 31.10142 | -38.68946 | 36487 ft | 509 kts | 225° |
| 2026-04-11 11:41 | 31.05221 | -38.74900 | 36480 ft | 509 kts | 225° |
| 2026-04-11 11:41 | 31.00300 | -38.80844 | 36480 ft | 509 kts | 225° |
| 2026-04-11 11:42 | 30.95376 | -38.86782 | 36479 ft | 509 kts | 225° |
| 2026-04-11 11:42 | 30.90454 | -38.92709 | 36480 ft | 509 kts | 225° |
| 2026-04-11 11:43 | 30.85527 | -38.98632 | 36476 ft | 509 kts | 225° |
| 2026-04-11 11:43 | 30.80601 | -39.04544 | 36474 ft | 509 kts | 225° |
| 2026-04-11 11:44 | 30.75674 | -39.10450 | 36475 ft | 509 kts | 225° |
| 2026-04-11 11:44 | 30.70742 | -39.16350 | 36472 ft | 509 kts | 225° |
| 2026-04-11 11:45 | 30.65806 | -39.22247 | 36468 ft | 509 kts | 225° |
| 2026-04-11 11:45 | 30.60868 | -39.28138 | 36470 ft | 509 kts | 225° |
| 2026-04-11 11:46 | 30.55926 | -39.34024 | 36468 ft | 509 kts | 225° |
| 2026-04-11 11:46 | 30.50980 | -39.39906 | 36462 ft | 509 kts | 225° |
| 2026-04-11 11:47 | 30.46027 | -39.45785 | 36466 ft | 509 kts | 225° |
| 2026-04-11 11:47 | 30.41104 | -39.51621 | 36463 ft | 510 kts | 225° |
| 2026-04-11 11:48 | 30.36117 | -39.57524 | 36469 ft | 510 kts | 225° |
| 2026-04-11 11:48 | 30.31153 | -39.63391 | 36459 ft | 510 kts | 226° |
| 2026-04-11 11:49 | 30.26186 | -39.69251 | 36458 ft | 510 kts | 226° |
| 2026-04-11 11:49 | 30.21249 | -39.75068 | 36459 ft | 510 kts | 226° |
| 2026-04-11 11:50 | 30.16273 | -39.80921 | 36450 ft | 510 kts | 226° |
| 2026-04-11 11:50 | 30.11299 | -39.86764 | 36451 ft | 510 kts | 226° |
| 2026-04-11 11:51 | 30.06317 | -39.92606 | 36453 ft | 510 kts | 226° |
| 2026-04-11 11:51 | 30.01337 | -39.98438 | 36453 ft | 510 kts | 226° |
| 2026-04-11 11:52 | 29.96272 | -40.04174 | 36450 ft | 510 kts | 223° |
| 2026-04-11 11:52 | 29.91026 | -40.09701 | 36448 ft | 511 kts | 222° |
| 2026-04-11 11:53 | 29.85766 | -40.15198 | 36443 ft | 510 kts | 223° |
| 2026-04-11 11:53 | 29.80526 | -40.20728 | 36442 ft | 510 kts | 223° |
| 2026-04-11 11:54 | 29.75307 | -40.26263 | 36435 ft | 510 kts | 223° |
| 2026-04-11 11:54 | 29.70967 | -40.30867 | 36439 ft | 510 kts | 223° |
| 2026-04-11 11:55 | 29.65743 | -40.36398 | 36441 ft | 510 kts | 223° |
| 2026-04-11 11:55 | 29.59666 | -40.42819 | 36445 ft | 510 kts | 223° |
| 2026-04-11 11:56 | 29.55281 | -40.47444 | 36443 ft | 511 kts | 223° |
| 2026-04-11 11:56 | 29.50045 | -40.52958 | 36433 ft | 511 kts | 223° |
| 2026-04-11 11:57 | 29.44810 | -40.58465 | 36429 ft | 510 kts | 223° |
| 2026-04-11 11:57 | 29.39607 | -40.63930 | 36429 ft | 510 kts | 223° |
| 2026-04-11 11:58 | 29.34369 | -40.69423 | 36428 ft | 510 kts | 223° |
| 2026-04-11 11:58 | 29.29131 | -40.74909 | 36426 ft | 510 kts | 223° |
| 2026-04-11 11:59 | 29.23891 | -40.80388 | 36431 ft | 510 kts | 223° |
| 2026-04-11 11:59 | 29.18642 | -40.85869 | 36423 ft | 510 kts | 223° |
| 2026-04-11 12:00 | 29.13397 | -40.91338 | 36423 ft | 510 kts | 223° |
| 2026-04-11 12:00 | 29.08155 | -40.96796 | 36423 ft | 510 kts | 223° |
| 2026-04-11 12:01 | 29.02911 | -41.02248 | 36421 ft | 510 kts | 223° |
| 2026-04-11 12:01 | 28.97663 | -41.07696 | 36423 ft | 510 kts | 223° |
| 2026-04-11 12:02 | 28.92414 | -41.13138 | 36418 ft | 510 kts | 223° |
| 2026-04-11 12:02 | 28.87164 | -41.18573 | 36421 ft | 510 kts | 223° |
| 2026-04-11 12:03 | 28.81903 | -41.24011 | 36414 ft | 510 kts | 223° |
| 2026-04-11 12:03 | 28.76650 | -41.29434 | 36415 ft | 509 kts | 223° |
| 2026-04-11 12:04 | 28.71394 | -41.34852 | 36405 ft | 509 kts | 223° |
| 2026-04-11 12:04 | 28.66141 | -41.40259 | 36411 ft | 509 kts | 223° |
| 2026-04-11 12:05 | 28.60888 | -41.45659 | 36409 ft | 509 kts | 223° |
| 2026-04-11 12:05 | 28.55630 | -41.51056 | 36412 ft | 509 kts | 223° |
| 2026-04-11 12:06 | 28.50412 | -41.56405 | 36406 ft | 509 kts | 223° |
| 2026-04-11 12:06 | 28.45150 | -41.61791 | 36406 ft | 509 kts | 223° |
| 2026-04-11 12:07 | 28.39890 | -41.67167 | 36405 ft | 509 kts | 223° |
| 2026-04-11 12:07 | 28.34629 | -41.72538 | 36404 ft | 509 kts | 223° |
| 2026-04-11 12:08 | 28.29365 | -41.77904 | 36391 ft | 509 kts | 223° |
| 2026-04-11 12:08 | 28.24096 | -41.83267 | 36414 ft | 509 kts | 223° |
| 2026-04-11 12:09 | 28.18826 | -41.88625 | 36405 ft | 509 kts | 223° |
| 2026-04-11 12:09 | 28.13551 | -41.93978 | 36400 ft | 509 kts | 223° |
| 2026-04-11 12:10 | 28.08277 | -41.99325 | 36385 ft | 508 kts | 223° |
| 2026-04-11 12:10 | 28.03012 | -42.04655 | 36403 ft | 508 kts | 223° |
| 2026-04-11 12:11 | 27.97743 | -42.09981 | 36408 ft | 508 kts | 223° |
| 2026-04-11 12:11 | 27.92476 | -42.15300 | 36384 ft | 507 kts | 223° |
| 2026-04-11 12:12 | 27.87209 | -42.20610 | 36375 ft | 507 kts | 223° |
| 2026-04-11 12:12 | 27.81944 | -42.25910 | 36398 ft | 507 kts | 223° |
| 2026-04-11 12:13 | 27.76673 | -42.31210 | 36381 ft | 507 kts | 223° |
| 2026-04-11 12:13 | 27.71437 | -42.36467 | 36379 ft | 507 kts | 223° |
| 2026-04-11 12:14 | 27.66170 | -42.41748 | 36385 ft | 507 kts | 223° |
| 2026-04-11 12:14 | 27.60902 | -42.47024 | 36390 ft | 506 kts | 223° |
| 2026-04-11 12:15 | 27.55635 | -42.52291 | 36384 ft | 506 kts | 223° |
| 2026-04-11 12:15 | 27.50361 | -42.57559 | 36385 ft | 506 kts | 223° |
| 2026-04-11 12:16 | 27.45086 | -42.62820 | 36367 ft | 506 kts | 223° |
| 2026-04-11 12:16 | 27.39814 | -42.68071 | 36372 ft | 506 kts | 223° |
| 2026-04-11 12:17 | 27.34541 | -42.73316 | 36376 ft | 506 kts | 223° |
| 2026-04-11 12:17 | 27.29262 | -42.78561 | 36372 ft | 506 kts | 223° |
| 2026-04-11 12:18 | 27.23985 | -42.83796 | 36366 ft | 506 kts | 223° |
| 2026-04-11 12:19 | 27.16067 | -42.91639 | 36372 ft | 506 kts | 223° |
| 2026-04-11 12:19 | 27.10791 | -42.96856 | 36365 ft | 506 kts | 224° |
| 2026-04-11 12:20 | 27.05512 | -43.02069 | 36365 ft | 505 kts | 223° |
| 2026-04-11 12:20 | 27.00235 | -43.07274 | 36359 ft | 505 kts | 224° |
| 2026-04-11 12:21 | 26.94964 | -43.12466 | 36359 ft | 504 kts | 224° |
| 2026-04-11 12:21 | 26.89721 | -43.17624 | 36361 ft | 504 kts | 223° |
| 2026-04-11 12:22 | 26.84446 | -43.22807 | 36361 ft | 504 kts | 223° |
| 2026-04-11 12:22 | 26.79172 | -43.27981 | 36358 ft | 504 kts | 223° |
| 2026-04-11 12:23 | 26.73897 | -43.33150 | 36362 ft | 504 kts | 223° |
| 2026-04-11 12:23 | 26.68617 | -43.38318 | 36354 ft | 504 kts | 223° |
| 2026-04-11 12:24 | 26.63337 | -43.43479 | 36346 ft | 504 kts | 223° |
| 2026-04-11 12:24 | 26.58061 | -43.48629 | 36352 ft | 504 kts | 223° |
| 2026-04-11 12:25 | 26.52781 | -43.53776 | 36349 ft | 504 kts | 223° |
| 2026-04-11 12:25 | 26.47500 | -43.58919 | 36348 ft | 504 kts | 223° |
| 2026-04-11 12:26 | 26.42215 | -43.64058 | 36340 ft | 504 kts | 223° |
| 2026-04-11 12:26 | 26.36930 | -43.69192 | 36348 ft | 503 kts | 223° |
| 2026-04-11 12:27 | 26.31645 | -43.74317 | 36345 ft | 503 kts | 223° |
| 2026-04-11 12:27 | 26.26401 | -43.79398 | 36348 ft | 503 kts | 223° |
| 2026-04-11 12:28 | 26.21120 | -43.84508 | 36340 ft | 503 kts | 223° |
| 2026-04-11 12:28 | 26.15836 | -43.89615 | 36345 ft | 503 kts | 223° |
| 2026-04-11 12:29 | 26.10555 | -43.94712 | 36343 ft | 503 kts | 223° |
| 2026-04-11 12:29 | 26.05272 | -43.99804 | 36340 ft | 502 kts | 223° |
| 2026-04-11 12:30 | 25.99991 | -44.04889 | 36330 ft | 502 kts | 223° |
| 2026-04-11 12:30 | 25.94705 | -44.09972 | 36338 ft | 502 kts | 223° |
| 2026-04-11 12:31 | 25.89427 | -44.15041 | 36336 ft | 501 kts | 223° |
| 2026-04-11 12:31 | 25.84149 | -44.20104 | 36334 ft | 501 kts | 223° |
| 2026-04-11 12:32 | 25.78869 | -44.25163 | 36318 ft | 501 kts | 223° |
| 2026-04-11 12:32 | 25.73594 | -44.30210 | 36334 ft | 501 kts | 223° |
| 2026-04-11 12:33 | 25.68319 | -44.35251 | 36327 ft | 500 kts | 223° |
| 2026-04-11 12:33 | 25.63078 | -44.40255 | 36333 ft | 500 kts | 223° |
| 2026-04-11 12:34 | 25.57803 | -44.45284 | 36323 ft | 500 kts | 223° |
| 2026-04-11 12:34 | 25.52526 | -44.50309 | 36325 ft | 500 kts | 223° |
| 2026-04-11 12:35 | 25.47250 | -44.55328 | 36318 ft | 500 kts | 223° |
| 2026-04-11 12:35 | 25.41965 | -44.60348 | 36321 ft | 501 kts | 223° |
| 2026-04-11 12:36 | 25.36676 | -44.65367 | 36321 ft | 501 kts | 222° |
| 2026-04-11 12:36 | 25.31389 | -44.70377 | 36317 ft | 501 kts | 223° |
| 2026-04-11 12:37 | 25.26098 | -44.75386 | 36313 ft | 501 kts | 222° |
| 2026-04-11 12:37 | 25.20799 | -44.80395 | 36314 ft | 501 kts | 222° |
| 2026-04-11 12:38 | 25.15503 | -44.85396 | 36310 ft | 501 kts | 222° |
| 2026-04-11 12:38 | 25.10202 | -44.90395 | 36318 ft | 501 kts | 222° |
| 2026-04-11 12:39 | 25.04898 | -44.95392 | 36317 ft | 502 kts | 222° |
| 2026-04-11 12:39 | 24.99559 | -45.00360 | 36314 ft | 502 kts | 219° |
| 2026-04-11 12:40 | 24.93838 | -45.04793 | 36318 ft | 503 kts | 216° |
| 2026-04-11 12:40 | 24.88042 | -45.09125 | 36306 ft | 503 kts | 216° |
| 2026-04-11 12:41 | 24.82257 | -45.13467 | 36301 ft | 503 kts | 216° |
| 2026-04-11 12:41 | 24.76488 | -45.17824 | 36310 ft | 503 kts | 216° |
| 2026-04-11 12:42 | 24.70766 | -45.22153 | 36300 ft | 503 kts | 216° |
| 2026-04-11 12:42 | 24.65002 | -45.26508 | 36303 ft | 503 kts | 216° |
| 2026-04-11 12:43 | 24.56354 | -45.33031 | 36306 ft | 503 kts | 216° |
| 2026-04-11 12:43 | 24.51558 | -45.36642 | 36316 ft | 503 kts | 216° |
| 2026-04-11 12:44 | 24.45786 | -45.40984 | 36307 ft | 503 kts | 216° |
| 2026-04-11 12:44 | 24.40009 | -45.45325 | 36306 ft | 503 kts | 216° |
| 2026-04-11 12:45 | 24.34233 | -45.49660 | 36304 ft | 503 kts | 216° |
| 2026-04-11 12:45 | 24.28453 | -45.53995 | 36300 ft | 503 kts | 216° |
| 2026-04-11 12:46 | 24.22669 | -45.58326 | 36291 ft | 503 kts | 216° |
| 2026-04-11 12:46 | 24.16888 | -45.62650 | 36298 ft | 503 kts | 216° |
| 2026-04-11 12:47 | 24.11108 | -45.66969 | 36295 ft | 503 kts | 215° |
| 2026-04-11 12:47 | 24.05327 | -45.71284 | 36293 ft | 503 kts | 216° |
| 2026-04-11 12:48 | 23.99545 | -45.75595 | 36295 ft | 502 kts | 216° |
| 2026-04-11 12:48 | 23.93764 | -45.79901 | 36286 ft | 502 kts | 216° |
| 2026-04-11 12:49 | 23.87987 | -45.84199 | 36292 ft | 502 kts | 216° |
| 2026-04-11 12:49 | 23.82210 | -45.88492 | 36290 ft | 502 kts | 216° |
| 2026-04-11 12:50 | 23.76431 | -45.92781 | 36287 ft | 502 kts | 216° |
| 2026-04-11 12:50 | 23.70649 | -45.97069 | 36287 ft | 503 kts | 215° |
| 2026-04-11 12:51 | 23.64899 | -46.01327 | 36283 ft | 503 kts | 216° |
| 2026-04-11 12:51 | 23.59108 | -46.05612 | 36281 ft | 503 kts | 215° |
| 2026-04-11 12:52 | 23.53318 | -46.09891 | 36282 ft | 503 kts | 215° |
| 2026-04-11 12:52 | 23.47528 | -46.14166 | 36280 ft | 503 kts | 215° |
| 2026-04-11 12:53 | 23.41729 | -46.18443 | 36278 ft | 503 kts | 215° |
| 2026-04-11 12:53 | 23.35938 | -46.22709 | 36278 ft | 503 kts | 215° |
| 2026-04-11 12:54 | 23.30138 | -46.26977 | 36276 ft | 503 kts | 215° |
| 2026-04-11 12:54 | 23.24335 | -46.31243 | 36278 ft | 503 kts | 215° |
| 2026-04-11 12:55 | 23.18533 | -46.35503 | 36276 ft | 503 kts | 215° |
| 2026-04-11 12:55 | 23.12725 | -46.39763 | 36271 ft | 504 kts | 215° |
| 2026-04-11 12:56 | 23.06919 | -46.44018 | 36272 ft | 504 kts | 215° |
| 2026-04-11 12:56 | 23.01106 | -46.48273 | 36273 ft | 504 kts | 215° |
| 2026-04-11 12:57 | 22.95329 | -46.52498 | 36266 ft | 504 kts | 215° |
| 2026-04-11 12:57 | 22.89516 | -46.56744 | 36272 ft | 504 kts | 215° |
| 2026-04-11 12:58 | 22.83700 | -46.60987 | 36265 ft | 504 kts | 215° |
| 2026-04-11 12:58 | 22.77882 | -46.65228 | 36261 ft | 504 kts | 215° |
| 2026-04-11 12:59 | 22.72059 | -46.69468 | 36259 ft | 504 kts | 215° |
| 2026-04-11 12:59 | 22.66234 | -46.73705 | 36263 ft | 504 kts | 215° |
| 2026-04-11 13:00 | 22.60411 | -46.77936 | 36263 ft | 504 kts | 215° |
| 2026-04-11 13:00 | 22.54585 | -46.82165 | 36260 ft | 504 kts | 215° |
| 2026-04-11 13:01 | 22.45849 | -46.88498 | 36272 ft | 503 kts | 215° |
| 2026-04-11 13:02 | 22.40074 | -46.92679 | 36261 ft | 503 kts | 215° |
| 2026-04-11 13:02 | 22.34261 | -46.96884 | 36263 ft | 502 kts | 215° |
| 2026-04-11 13:03 | 22.28452 | -47.01082 | 36258 ft | 502 kts | 215° |
| 2026-04-11 13:03 | 22.22634 | -47.05281 | 36255 ft | 503 kts | 215° |
| 2026-04-11 13:04 | 22.16811 | -47.09480 | 36258 ft | 503 kts | 215° |
| 2026-04-11 13:04 | 22.10993 | -47.13671 | 36255 ft | 503 kts | 215° |
| 2026-04-11 13:05 | 22.05173 | -47.17859 | 36252 ft | 502 kts | 215° |
| 2026-04-11 13:05 | 21.99357 | -47.22039 | 36246 ft | 502 kts | 215° |
| 2026-04-11 13:06 | 21.93551 | -47.26209 | 36253 ft | 501 kts | 215° |
| 2026-04-11 13:06 | 21.87743 | -47.30376 | 36248 ft | 502 kts | 215° |
| 2026-04-11 13:07 | 21.81969 | -47.34515 | 36247 ft | 502 kts | 215° |
| 2026-04-11 13:07 | 21.76159 | -47.38676 | 36240 ft | 501 kts | 215° |
| 2026-04-11 13:08 | 21.70351 | -47.42830 | 36241 ft | 502 kts | 215° |
| 2026-04-11 13:08 | 21.64540 | -47.46983 | 36243 ft | 502 kts | 216° |
| 2026-04-11 13:09 | 21.58723 | -47.51135 | 36244 ft | 501 kts | 215° |
| 2026-04-11 13:09 | 21.52913 | -47.55280 | 36238 ft | 501 kts | 215° |
| 2026-04-11 13:10 | 21.47104 | -47.59419 | 36234 ft | 501 kts | 215° |
| 2026-04-11 13:10 | 21.41300 | -47.63551 | 36237 ft | 500 kts | 215° |
| 2026-04-11 13:11 | 21.35494 | -47.67679 | 36237 ft | 500 kts | 215° |
| 2026-04-11 13:11 | 21.29697 | -47.71798 | 36236 ft | 500 kts | 216° |
| 2026-04-11 13:12 | 21.23893 | -47.75917 | 36234 ft | 500 kts | 215° |
| 2026-04-11 13:12 | 21.18132 | -47.80003 | 36232 ft | 500 kts | 215° |
| 2026-04-11 13:13 | 21.12323 | -47.84118 | 36228 ft | 501 kts | 216° |
| 2026-04-11 13:13 | 21.06513 | -47.88230 | 36234 ft | 501 kts | 215° |
| 2026-04-11 13:14 | 21.00700 | -47.92340 | 36231 ft | 501 kts | 216° |
| 2026-04-11 13:14 | 20.94886 | -47.96447 | 36228 ft | 501 kts | 215° |
| 2026-04-11 13:15 | 20.89071 | -48.00551 | 36229 ft | 500 kts | 216° |
| 2026-04-11 13:15 | 20.83265 | -48.04645 | 36230 ft | 500 kts | 216° |
| 2026-04-11 13:16 | 20.77464 | -48.08731 | 36229 ft | 499 kts | 216° |
| 2026-04-11 13:16 | 20.71664 | -48.12813 | 36228 ft | 499 kts | 216° |
| 2026-04-11 13:17 | 20.65871 | -48.16886 | 36226 ft | 498 kts | 216° |
| 2026-04-11 13:17 | 20.60083 | -48.20952 | 36225 ft | 498 kts | 216° |
| 2026-04-11 13:18 | 20.54290 | -48.25018 | 36222 ft | 498 kts | 216° |
| 2026-04-11 13:18 | 20.48503 | -48.29075 | 36224 ft | 498 kts | 216° |
| 2026-04-11 13:19 | 20.42717 | -48.33129 | 36226 ft | 497 kts | 216° |
| 2026-04-11 13:19 | 20.36970 | -48.37151 | 36221 ft | 497 kts | 216° |
| 2026-04-11 13:20 | 20.31187 | -48.41194 | 36219 ft | 497 kts | 216° |
| 2026-04-11 13:20 | 20.25407 | -48.45232 | 36206 ft | 497 kts | 216° |
| 2026-04-11 13:21 | 20.19634 | -48.49262 | 36218 ft | 496 kts | 216° |
| 2026-04-11 13:21 | 20.13859 | -48.53289 | 36215 ft | 496 kts | 216° |
| 2026-04-11 13:22 | 20.08094 | -48.57306 | 36212 ft | 496 kts | 216° |
| 2026-04-11 13:22 | 20.02320 | -48.61324 | 36216 ft | 495 kts | 216° |
| 2026-04-11 13:23 | 19.96552 | -48.65336 | 36201 ft | 495 kts | 217° |
| 2026-04-11 13:23 | 19.90787 | -48.69342 | 36213 ft | 495 kts | 217° |
| 2026-04-11 13:24 | 19.85021 | -48.73346 | 36214 ft | 495 kts | 217° |
| 2026-04-11 13:24 | 19.79292 | -48.77319 | 36212 ft | 495 kts | 217° |
| 2026-04-11 13:25 | 19.73527 | -48.81315 | 36207 ft | 495 kts | 217° |
| 2026-04-11 13:25 | 19.67758 | -48.85310 | 36207 ft | 495 kts | 217° |
| 2026-04-11 13:26 | 19.61993 | -48.89298 | 36199 ft | 495 kts | 217° |
| 2026-04-11 13:26 | 19.56228 | -48.93283 | 36206 ft | 494 kts | 217° |
| 2026-04-11 13:27 | 19.50474 | -48.97256 | 36205 ft | 494 kts | 217° |
| 2026-04-11 13:27 | 19.44721 | -49.01226 | 36205 ft | 493 kts | 217° |
| 2026-04-11 13:28 | 19.38970 | -49.05191 | 36189 ft | 493 kts | 217° |
| 2026-04-11 13:28 | 19.33226 | -49.09147 | 36187 ft | 492 kts | 218° |
| 2026-04-11 13:29 | 19.27486 | -49.13099 | 36201 ft | 492 kts | 218° |
| 2026-04-11 13:29 | 19.21745 | -49.17046 | 36199 ft | 492 kts | 218° |
| 2026-04-11 13:30 | 19.16001 | -49.20993 | 36199 ft | 492 kts | 218° |
| 2026-04-11 13:30 | 19.10255 | -49.24938 | 36202 ft | 493 kts | 218° |
| 2026-04-11 13:31 | 19.04502 | -49.28884 | 36196 ft | 493 kts | 217° |
| 2026-04-11 13:31 | 18.98739 | -49.32834 | 36194 ft | 493 kts | 217° |
| 2026-04-11 13:32 | 18.93019 | -49.36751 | 36206 ft | 493 kts | 218° |
| 2026-04-11 13:32 | 18.87263 | -49.40689 | 36199 ft | 493 kts | 218° |
| 2026-04-11 13:33 | 18.81507 | -49.44624 | 36187 ft | 492 kts | 218° |
| 2026-04-11 13:33 | 18.75760 | -49.48550 | 36185 ft | 492 kts | 218° |
| 2026-04-11 13:34 | 18.70022 | -49.52465 | 36194 ft | 490 kts | 218° |
| 2026-04-11 13:34 | 18.65265 | -49.55710 | 36183 ft | 489 kts | 218° |
| 2026-04-11 13:35 | 18.59553 | -49.59602 | 36188 ft | 488 kts | 218° |
| 2026-04-11 13:35 | 18.53852 | -49.63484 | 36189 ft | 488 kts | 218° |
| 2026-04-11 13:36 | 18.48162 | -49.67356 | 36185 ft | 486 kts | 218° |
| 2026-04-11 13:36 | 18.42490 | -49.71212 | 36180 ft | 485 kts | 218° |
| 2026-04-11 13:37 | 18.36832 | -49.75056 | 36179 ft | 484 kts | 218° |
| 2026-04-11 13:37 | 18.31175 | -49.78895 | 36182 ft | 483 kts | 218° |
| 2026-04-11 13:38 | 18.25522 | -49.82729 | 36180 ft | 483 kts | 218° |
| 2026-04-11 13:38 | 18.19882 | -49.86552 | 36178 ft | 482 kts | 218° |
| 2026-04-11 13:39 | 18.14245 | -49.90369 | 36177 ft | 482 kts | 218° |
| 2026-04-11 13:39 | 18.08604 | -49.94185 | 36176 ft | 482 kts | 218° |
| 2026-04-11 13:40 | 18.02969 | -49.97995 | 36167 ft | 481 kts | 218° |
| 2026-04-11 13:40 | 17.97137 | -50.01490 | 36168 ft | 487 kts | 210° |
| 2026-04-11 13:41 | 17.90969 | -50.04437 | 36175 ft | 487 kts | 210° |
| 2026-04-11 13:41 | 17.84831 | -50.07342 | 36158 ft | 487 kts | 210° |
| 2026-04-11 13:42 | 17.78670 | -50.10284 | 36166 ft | 486 kts | 210° |
| 2026-04-11 13:42 | 17.72525 | -50.13238 | 36171 ft | 485 kts | 210° |
| 2026-04-11 13:43 | 17.66389 | -50.16191 | 36167 ft | 485 kts | 210° |
| 2026-04-11 13:43 | 17.60257 | -50.19139 | 36155 ft | 485 kts | 210° |
| 2026-04-11 13:44 | 17.54133 | -50.22079 | 36159 ft | 483 kts | 210° |
| 2026-04-11 13:44 | 17.48023 | -50.25011 | 36169 ft | 483 kts | 210° |
| 2026-04-11 13:45 | 17.41925 | -50.27934 | 36166 ft | 482 kts | 210° |
| 2026-04-11 13:45 | 17.35829 | -50.30855 | 36162 ft | 481 kts | 210° |
| 2026-04-11 13:46 | 17.29744 | -50.33768 | 36159 ft | 481 kts | 210° |
| 2026-04-11 13:46 | 17.23667 | -50.36675 | 36159 ft | 480 kts | 210° |
| 2026-04-11 13:47 | 17.17594 | -50.39578 | 36157 ft | 480 kts | 210° |
| 2026-04-11 13:47 | 17.11523 | -50.42478 | 36142 ft | 479 kts | 210° |
| 2026-04-11 13:48 | 17.05498 | -50.45353 | 36149 ft | 479 kts | 210° |
| 2026-04-11 13:48 | 16.99395 | -50.48265 | 36154 ft | 479 kts | 210° |
| 2026-04-11 13:49 | 16.93378 | -50.51133 | 36154 ft | 479 kts | 210° |
| 2026-04-11 13:49 | 16.87312 | -50.54022 | 36155 ft | 479 kts | 210° |
| 2026-04-11 13:50 | 16.81247 | -50.56909 | 36153 ft | 479 kts | 210° |
| 2026-04-11 13:50 | 16.75169 | -50.59800 | 36153 ft | 480 kts | 210° |
| 2026-04-11 13:51 | 16.69099 | -50.62685 | 36151 ft | 480 kts | 210° |
| 2026-04-11 13:51 | 16.63016 | -50.65574 | 36134 ft | 480 kts | 210° |
| 2026-04-11 13:52 | 16.56946 | -50.68454 | 36145 ft | 479 kts | 210° |
| 2026-04-11 13:52 | 16.50869 | -50.71336 | 36148 ft | 479 kts | 210° |
| 2026-04-11 13:53 | 16.44801 | -50.74213 | 36141 ft | 479 kts | 210° |
| 2026-04-11 13:53 | 16.38731 | -50.77088 | 36133 ft | 479 kts | 210° |
| 2026-04-11 13:54 | 16.32662 | -50.79960 | 36141 ft | 478 kts | 210° |
| 2026-04-11 13:54 | 16.26602 | -50.82826 | 36142 ft | 478 kts | 210° |
| 2026-04-11 13:55 | 16.20546 | -50.85688 | 36143 ft | 478 kts | 210° |
| 2026-04-11 13:55 | 16.14495 | -50.88547 | 36125 ft | 477 kts | 210° |
| 2026-04-11 13:56 | 16.08493 | -50.91380 | 36145 ft | 477 kts | 211° |
| 2026-04-11 13:56 | 16.02449 | -50.94231 | 36145 ft | 477 kts | 211° |
| 2026-04-11 13:57 | 15.96406 | -50.97080 | 36141 ft | 477 kts | 210° |
| 2026-04-11 13:57 | 15.90365 | -50.99926 | 36126 ft | 477 kts | 211° |
| 2026-04-11 13:58 | 15.84325 | -51.02769 | 36134 ft | 476 kts | 211° |
| 2026-04-11 13:58 | 15.78289 | -51.05609 | 36140 ft | 476 kts | 211° |
| 2026-04-11 13:59 | 15.72255 | -51.08446 | 36135 ft | 476 kts | 211° |
| 2026-04-11 13:59 | 15.66212 | -51.11285 | 36136 ft | 476 kts | 211° |
| 2026-04-11 14:00 | 15.60180 | -51.14117 | 36131 ft | 476 kts | 211° |
| 2026-04-11 14:00 | 15.51132 | -51.18362 | 36135 ft | 476 kts | 211° |
| 2026-04-11 14:01 | 15.45100 | -51.21190 | 36132 ft | 476 kts | 211° |
| 2026-04-11 14:01 | 15.39109 | -51.23997 | 36112 ft | 476 kts | 211° |
| 2026-04-11 14:02 | 15.33078 | -51.26820 | 36127 ft | 476 kts | 211° |
| 2026-04-11 14:02 | 15.27047 | -51.29642 | 36132 ft | 476 kts | 211° |
| 2026-04-11 14:03 | 15.21014 | -51.32463 | 36128 ft | 476 kts | 211° |
| 2026-04-11 14:03 | 15.14976 | -51.35285 | 36126 ft | 476 kts | 211° |
| 2026-04-11 14:04 | 15.08934 | -51.38106 | 36123 ft | 476 kts | 211° |
| 2026-04-11 14:04 | 15.02891 | -51.40927 | 36127 ft | 476 kts | 211° |
| 2026-04-11 14:05 | 14.96843 | -51.43748 | 36126 ft | 477 kts | 211° |
| 2026-04-11 14:05 | 14.90788 | -51.46570 | 36120 ft | 477 kts | 211° |
| 2026-04-11 14:06 | 14.84735 | -51.49389 | 36118 ft | 477 kts | 211° |
| 2026-04-11 14:06 | 14.78683 | -51.52207 | 36118 ft | 477 kts | 211° |
| 2026-04-11 14:07 | 14.72662 | -51.55008 | 36113 ft | 478 kts | 211° |
| 2026-04-11 14:07 | 14.66606 | -51.57824 | 36126 ft | 478 kts | 211° |
| 2026-04-11 14:08 | 14.60547 | -51.60640 | 36113 ft | 477 kts | 211° |
| 2026-04-11 14:08 | 14.54487 | -51.63454 | 36118 ft | 478 kts | 211° |
| 2026-04-11 14:09 | 14.48421 | -51.66269 | 36118 ft | 478 kts | 211° |
| 2026-04-11 14:09 | 14.42358 | -51.69082 | 36115 ft | 478 kts | 211° |
| 2026-04-11 14:10 | 14.36290 | -51.71895 | 36116 ft | 478 kts | 211° |
| 2026-04-11 14:10 | 14.30223 | -51.74706 | 36113 ft | 478 kts | 211° |
| 2026-04-11 14:11 | 14.24157 | -51.77514 | 36113 ft | 478 kts | 211° |
| 2026-04-11 14:11 | 14.18088 | -51.80323 | 36103 ft | 478 kts | 211° |
| 2026-04-11 14:12 | 14.12022 | -51.83128 | 36094 ft | 478 kts | 211° |
| 2026-04-11 14:12 | 14.05954 | -51.85933 | 36098 ft | 478 kts | 211° |
| 2026-04-11 14:13 | 13.99891 | -51.88734 | 36106 ft | 478 kts | 211° |
| 2026-04-11 14:13 | 13.93823 | -51.91535 | 36110 ft | 478 kts | 211° |
| 2026-04-11 14:14 | 13.87755 | -51.94335 | 36106 ft | 478 kts | 211° |
| 2026-04-11 14:14 | 13.81728 | -51.97114 | 36100 ft | 478 kts | 211° |
| 2026-04-11 14:15 | 13.75660 | -51.99911 | 36107 ft | 478 kts | 211° |
| 2026-04-11 14:15 | 13.69588 | -52.02707 | 36103 ft | 478 kts | 211° |
| 2026-04-11 14:16 | 13.63519 | -52.05502 | 36099 ft | 478 kts | 211° |
| 2026-04-11 14:16 | 13.57445 | -52.08296 | 36088 ft | 478 kts | 211° |
| 2026-04-11 14:17 | 13.51377 | -52.11086 | 36099 ft | 478 kts | 211° |
| 2026-04-11 14:17 | 13.45311 | -52.13874 | 36102 ft | 478 kts | 211° |
| 2026-04-11 14:18 | 13.39245 | -52.16661 | 36102 ft | 478 kts | 211° |
| 2026-04-11 14:18 | 13.33176 | -52.19447 | 36088 ft | 478 kts | 210° |
| 2026-04-11 14:19 | 13.27108 | -52.22230 | 36091 ft | 477 kts | 210° |
| 2026-04-11 14:19 | 13.21042 | -52.25012 | 36097 ft | 477 kts | 211° |
| 2026-04-11 14:20 | 13.14976 | -52.27792 | 36096 ft | 477 kts | 211° |
| 2026-04-11 14:20 | 13.08912 | -52.30570 | 36094 ft | 478 kts | 210° |
| 2026-04-11 14:21 | 13.02842 | -52.33349 | 36087 ft | 478 kts | 210° |
| 2026-04-11 14:21 | 12.97799 | -52.35657 | 36094 ft | 478 kts | 210° |
| 2026-04-11 14:22 | 12.91722 | -52.38436 | 36093 ft | 478 kts | 210° |
| 2026-04-11 14:22 | 12.85647 | -52.41213 | 36093 ft | 478 kts | 210° |
| 2026-04-11 14:23 | 12.79563 | -52.43993 | 36074 ft | 479 kts | 210° |
| 2026-04-11 14:23 | 12.73482 | -52.46770 | 36096 ft | 479 kts | 210° |
| 2026-04-11 14:24 | 12.67394 | -52.49549 | 36089 ft | 479 kts | 210° |
| 2026-04-11 14:24 | 12.61297 | -52.52329 | 36079 ft | 480 kts | 210° |
| 2026-04-11 14:25 | 12.55198 | -52.55110 | 36078 ft | 480 kts | 210° |
| 2026-04-11 14:25 | 12.49098 | -52.57889 | 36085 ft | 480 kts | 210° |
| 2026-04-11 14:26 | 12.42993 | -52.60670 | 36082 ft | 480 kts | 210° |
| 2026-04-11 14:26 | 12.36891 | -52.63448 | 36082 ft | 480 kts | 210° |
| 2026-04-11 14:27 | 12.30780 | -52.66228 | 36082 ft | 481 kts | 210° |
| 2026-04-11 14:27 | 12.24664 | -52.69009 | 36071 ft | 481 kts | 210° |
| 2026-04-11 14:28 | 12.18554 | -52.71786 | 36077 ft | 481 kts | 210° |
| 2026-04-11 14:28 | 12.12440 | -52.74563 | 36079 ft | 481 kts | 210° |
| 2026-04-11 14:29 | 12.06326 | -52.77340 | 36077 ft | 481 kts | 210° |
| 2026-04-11 14:29 | 12.00205 | -52.80117 | 36080 ft | 481 kts | 210° |
| 2026-04-11 14:30 | 11.94125 | -52.82875 | 36072 ft | 481 kts | 210° |
| 2026-04-11 14:30 | 11.87962 | -52.85669 | 36080 ft | 481 kts | 210° |
| 2026-04-11 14:31 | 11.81839 | -52.88443 | 36079 ft | 482 kts | 210° |
| 2026-04-11 14:31 | 11.75712 | -52.91219 | 36076 ft | 482 kts | 210° |
| 2026-04-11 14:32 | 11.69626 | -52.93974 | 36076 ft | 482 kts | 210° |
| 2026-04-11 14:32 | 11.63494 | -52.96748 | 36073 ft | 482 kts | 210° |
| 2026-04-11 14:33 | 11.57367 | -52.99519 | 36077 ft | 482 kts | 210° |
| 2026-04-11 14:33 | 11.51236 | -53.02291 | 36071 ft | 482 kts | 210° |
| 2026-04-11 14:34 | 11.45111 | -53.05058 | 36074 ft | 482 kts | 210° |
| 2026-04-11 14:34 | 11.38978 | -53.07828 | 36069 ft | 482 kts | 209° |
| 2026-04-11 14:35 | 11.32852 | -53.10593 | 36071 ft | 482 kts | 209° |
| 2026-04-11 14:35 | 11.26723 | -53.13359 | 36074 ft | 482 kts | 209° |
| 2026-04-11 14:36 | 11.20588 | -53.16125 | 36068 ft | 482 kts | 209° |
| 2026-04-11 14:36 | 11.14455 | -53.18890 | 36053 ft | 482 kts | 209° |
| 2026-04-11 14:37 | 11.08316 | -53.21656 | 36068 ft | 482 kts | 209° |
| 2026-04-11 14:37 | 11.02176 | -53.24421 | 36064 ft | 483 kts | 209° |
| 2026-04-11 14:38 | 10.96028 | -53.27188 | 36064 ft | 483 kts | 209° |
| 2026-04-11 14:38 | 10.89874 | -53.29958 | 36062 ft | 483 kts | 209° |
| 2026-04-11 14:39 | 10.83721 | -53.32725 | 36062 ft | 483 kts | 209° |
| 2026-04-11 14:39 | 10.77570 | -53.35490 | 36060 ft | 483 kts | 209° |
| 2026-04-11 14:40 | 10.71453 | -53.38238 | 36060 ft | 484 kts | 209° |
| 2026-04-11 14:40 | 10.65298 | -53.41003 | 36060 ft | 484 kts | 209° |
| 2026-04-11 14:41 | 10.59144 | -53.43765 | 36054 ft | 484 kts | 208° |
| 2026-04-11 14:41 | 10.52986 | -53.46529 | 36057 ft | 484 kts | 208° |
| 2026-04-11 14:42 | 10.46830 | -53.49290 | 36057 ft | 484 kts | 208° |
| 2026-04-11 14:43 | 10.37596 | -53.53429 | 36058 ft | 484 kts | 208° |
| 2026-04-11 14:43 | 10.31442 | -53.56187 | 36047 ft | 484 kts | 208° |
| 2026-04-11 14:44 | 10.25242 | -53.58963 | 36055 ft | 483 kts | 208° |
| 2026-04-11 14:44 | 10.19130 | -53.61699 | 36051 ft | 483 kts | 208° |
| 2026-04-11 14:45 | 10.12934 | -53.64472 | 36052 ft | 483 kts | 208° |
| 2026-04-11 14:45 | 10.06828 | -53.67203 | 36051 ft | 483 kts | 208° |
| 2026-04-11 14:46 | 10.00675 | -53.69954 | 36049 ft | 483 kts | 208° |
| 2026-04-11 14:46 | 9.94526 | -53.72702 | 36053 ft | 483 kts | 208° |
| 2026-04-11 14:47 | 9.88370 | -53.75452 | 36049 ft | 483 kts | 208° |
| 2026-04-11 14:47 | 9.82217 | -53.78200 | 36055 ft | 483 kts | 208° |
| 2026-04-11 14:48 | 9.76058 | -53.80949 | 36041 ft | 483 kts | 208° |
| 2026-04-11 14:48 | 9.69907 | -53.83693 | 36050 ft | 483 kts | 208° |
| 2026-04-11 14:49 | 9.63760 | -53.86434 | 36048 ft | 483 kts | 208° |
| 2026-04-11 14:49 | 9.54543 | -53.90543 | 36049 ft | 482 kts | 208° |
| 2026-04-11 14:50 | 9.48400 | -53.93279 | 36049 ft | 482 kts | 208° |
| 2026-04-11 14:50 | 9.42266 | -53.96011 | 36043 ft | 482 kts | 207° |
| 2026-04-11 14:51 | 9.36129 | -53.98743 | 36043 ft | 481 kts | 207° |
| 2026-04-11 14:51 | 9.29798 | -54.00991 | 36037 ft | 486 kts | 198° |
| 2026-04-11 14:52 | 9.23233 | -54.02621 | 36045 ft | 486 kts | 198° |
| 2026-04-11 14:52 | 9.16667 | -54.04236 | 36039 ft | 486 kts | 197° |
| 2026-04-11 14:53 | 9.10148 | -54.05867 | 36044 ft | 485 kts | 198° |
| 2026-04-11 14:53 | 9.03598 | -54.07522 | 36043 ft | 485 kts | 198° |
| 2026-04-11 14:54 | 8.97047 | -54.09181 | 36044 ft | 485 kts | 198° |
| 2026-04-11 14:54 | 8.90491 | -54.10840 | 36043 ft | 486 kts | 198° |
| 2026-04-11 14:55 | 8.83936 | -54.12497 | 36042 ft | 486 kts | 198° |
| 2026-04-11 14:55 | 8.77377 | -54.14153 | 36042 ft | 486 kts | 198° |
| 2026-04-11 14:56 | 8.70817 | -54.15810 | 36040 ft | 486 kts | 198° |
| 2026-04-11 14:56 | 8.64259 | -54.17465 | 36041 ft | 486 kts | 198° |
| 2026-04-11 14:57 | 8.57694 | -54.19122 | 36038 ft | 486 kts | 197° |
| 2026-04-11 14:57 | 8.51139 | -54.20775 | 36037 ft | 486 kts | 197° |
| 2026-04-11 14:58 | 8.44584 | -54.22428 | 36036 ft | 485 kts | 197° |
| 2026-04-11 14:58 | 8.38030 | -54.24080 | 36035 ft | 485 kts | 197° |
| 2026-04-11 14:59 | 8.31483 | -54.25730 | 36037 ft | 485 kts | 197° |
| 2026-04-11 14:59 | 8.24940 | -54.27378 | 36036 ft | 485 kts | 197° |
| 2026-04-11 15:00 | 8.18397 | -54.29026 | 36037 ft | 484 kts | 197° |
| 2026-04-11 15:00 | 8.11864 | -54.30670 | 36038 ft | 484 kts | 197° |
| 2026-04-11 15:01 | 8.05335 | -54.32314 | 36035 ft | 484 kts | 197° |
| 2026-04-11 15:01 | 7.98803 | -54.33957 | 36036 ft | 484 kts | 197° |
| 2026-04-11 15:02 | 7.92275 | -54.35598 | 36033 ft | 484 kts | 197° |
| 2026-04-11 15:02 | 7.85746 | -54.37240 | 36033 ft | 484 kts | 197° |
| 2026-04-11 15:03 | 7.79258 | -54.38870 | 36033 ft | 484 kts | 197° |
| 2026-04-11 15:03 | 7.72728 | -54.40511 | 36033 ft | 484 kts | 197° |
| 2026-04-11 15:04 | 7.66152 | -54.42163 | 36034 ft | 484 kts | 197° |
| 2026-04-11 15:04 | 7.59659 | -54.43793 | 36030 ft | 484 kts | 197° |
| 2026-04-11 15:05 | 7.53124 | -54.45433 | 36030 ft | 484 kts | 197° |
| 2026-04-11 15:05 | 7.46586 | -54.47073 | 36029 ft | 484 kts | 197° |
| 2026-04-11 15:06 | 7.40051 | -54.48713 | 36028 ft | 484 kts | 197° |
| 2026-04-11 15:06 | 7.33515 | -54.50352 | 36031 ft | 484 kts | 197° |
| 2026-04-11 15:07 | 7.26974 | -54.51991 | 36026 ft | 484 kts | 197° |
| 2026-04-11 15:07 | 7.21542 | -54.53353 | 36027 ft | 484 kts | 197° |
| 2026-04-11 15:08 | 7.15004 | -54.54991 | 36030 ft | 484 kts | 196° |
| 2026-04-11 15:08 | 7.08465 | -54.56629 | 36029 ft | 484 kts | 196° |
| 2026-04-11 15:09 | 7.01934 | -54.58264 | 36030 ft | 484 kts | 196° |
| 2026-04-11 15:09 | 6.95423 | -54.59893 | 35688 ft | 482 kts | 196° |
| 2026-04-11 15:10 | 6.92152 | -54.60713 | 34956 ft | 485 kts | 196° |
| 2026-04-11 15:10 | 6.88871 | -54.61534 | 34111 ft | 488 kts | 196° |
| 2026-04-11 15:10 | 6.85566 | -54.62362 | 33119 ft | 492 kts | 196° |
| 2026-04-11 15:10 | 6.82231 | -54.63196 | 32164 ft | 495 kts | 196° |
| 2026-04-11 15:11 | 6.78866 | -54.64037 | 31146 ft | 500 kts | 196° |
| 2026-04-11 15:11 | 6.75483 | -54.64883 | 30370 ft | 500 kts | 195° |
| 2026-04-11 15:11 | 6.72109 | -54.65726 | 29583 ft | 499 kts | 195° |
| 2026-04-11 15:11 | 6.68745 | -54.66566 | 28817 ft | 497 kts | 196° |
| 2026-04-11 15:12 | 6.65396 | -54.67402 | 28115 ft | 494 kts | 195° |
| 2026-04-11 15:12 | 6.62074 | -54.68232 | 27440 ft | 491 kts | 196° |
| 2026-04-11 15:12 | 6.58769 | -54.69058 | 26762 ft | 488 kts | 195° |
| 2026-04-11 15:12 | 6.55486 | -54.69878 | 26093 ft | 485 kts | 195° |
| 2026-04-11 15:13 | 6.52218 | -54.70695 | 25414 ft | 483 kts | 195° |
| 2026-04-11 15:13 | 6.48967 | -54.71507 | 24752 ft | 480 kts | 195° |
| 2026-04-11 15:13 | 6.45733 | -54.72315 | 24076 ft | 478 kts | 196° |
| 2026-04-11 15:13 | 6.42552 | -54.73109 | 23379 ft | 476 kts | 196° |
| 2026-04-11 15:14 | 6.39313 | -54.73918 | 22771 ft | 470 kts | 195° |
| 2026-04-11 15:14 | 6.36154 | -54.74707 | 22180 ft | 464 kts | 195° |
| 2026-04-11 15:14 | 6.33051 | -54.75480 | 21785 ft | 454 kts | 195° |
| 2026-04-11 15:14 | 6.30036 | -54.76234 | 20918 ft | 455 kts | 195° |
| 2026-04-11 15:15 | 6.26978 | -54.76997 | 20432 ft | 448 kts | 195° |
| 2026-04-11 15:15 | 6.23993 | -54.77742 | 20089 ft | 438 kts | 195° |
| 2026-04-11 15:15 | 6.21062 | -54.78473 | 19716 ft | 429 kts | 194° |
| 2026-04-11 15:15 | 6.18196 | -54.79188 | 19331 ft | 421 kts | 194° |
| 2026-04-11 15:16 | 6.15369 | -54.79893 | 18892 ft | 416 kts | 194° |
| 2026-04-11 15:16 | 6.12571 | -54.80591 | 18366 ft | 413 kts | 194° |
| 2026-04-11 15:16 | 6.09799 | -54.81283 | 17909 ft | 408 kts | 194° |
| 2026-04-11 15:16 | 6.07057 | -54.81967 | 17392 ft | 404 kts | 194° |
| 2026-04-11 15:17 | 6.04367 | -54.82706 | 16808 ft | 399 kts | 199° |
| 2026-04-11 15:17 | 6.01888 | -54.83962 | 16170 ft | 401 kts | 213° |
| 2026-04-11 15:17 | 5.99700 | -54.85708 | 15559 ft | 403 kts | 222° |
| 2026-04-11 15:17 | 5.97855 | -54.87805 | 14982 ft | 401 kts | 229° |
| 2026-04-11 15:18 | 5.96097 | -54.89979 | 14423 ft | 401 kts | 230° |
| 2026-04-11 15:18 | 5.94386 | -54.92106 | 13613 ft | 384 kts | 229° |
| 2026-04-11 15:18 | 5.92697 | -54.94197 | 12459 ft | 384 kts | 229° |
| 2026-04-11 15:18 | 5.91020 | -54.96257 | 11262 ft | 379 kts | 229° |
| 2026-04-11 15:19 | 5.89391 | -54.98250 | 10926 ft | 350 kts | 229° |
| 2026-04-11 15:19 | 5.87912 | -55.00060 | 10769 ft | 321 kts | 228° |
| 2026-04-11 15:19 | 5.86547 | -55.01726 | 10652 ft | 298 kts | 228° |
| 2026-04-11 15:19 | 5.85269 | -55.03279 | 10529 ft | 280 kts | 229° |
| 2026-04-11 15:20 | 5.84043 | -55.04767 | 10444 ft | 280 kts | 228° |
| 2026-04-11 15:20 | 5.82766 | -55.06310 | 10368 ft | 295 kts | 228° |
| 2026-04-11 15:20 | 5.81445 | -55.07910 | 10236 ft | 297 kts | 229° |
| 2026-04-11 15:20 | 5.80138 | -55.09496 | 10117 ft | 292 kts | 229° |
| 2026-04-11 15:21 | 5.78863 | -55.11045 | 9899 ft | 287 kts | 229° |
| 2026-04-11 15:21 | 5.77592 | -55.12589 | 9539 ft | 286 kts | 229° |
| 2026-04-11 15:21 | 5.76326 | -55.14126 | 9200 ft | 285 kts | 228° |
| 2026-04-11 15:21 | 5.75061 | -55.15661 | 8873 ft | 284 kts | 229° |
| 2026-04-11 15:22 | 5.73802 | -55.17188 | 8531 ft | 284 kts | 228° |
| 2026-04-11 15:22 | 5.72544 | -55.18714 | 8216 ft | 283 kts | 228° |
| 2026-04-11 15:22 | 5.71302 | -55.20222 | 7982 ft | 278 kts | 228° |
| 2026-04-11 15:22 | 5.70067 | -55.21720 | 7656 ft | 278 kts | 228° |
| 2026-04-11 15:23 | 5.68836 | -55.23214 | 7342 ft | 278 kts | 228° |
| 2026-04-11 15:23 | 5.67604 | -55.24707 | 7019 ft | 278 kts | 228° |
| 2026-04-11 15:23 | 5.66368 | -55.26205 | 6714 ft | 279 kts | 228° |
| 2026-04-11 15:23 | 5.65119 | -55.27686 | 6379 ft | 279 kts | 228° |
| 2026-04-11 15:24 | 5.63886 | -55.29194 | 6048 ft | 280 kts | 228° |
| 2026-04-11 15:24 | 5.62643 | -55.30713 | 5702 ft | 282 kts | 229° |
| 2026-04-11 15:24 | 5.61285 | -55.32089 | 5321 ft | 274 kts | 210° |
| 2026-04-11 15:24 | 5.59532 | -55.32689 | 5030 ft | 264 kts | 182° |
| 2026-04-11 15:25 | 5.57715 | -55.32675 | 4714 ft | 258 kts | 179° |
| 2026-04-11 15:25 | 5.55983 | -55.33110 | 4397 ft | 263 kts | 209° |
| 2026-04-11 15:25 | 5.54489 | -55.34172 | 4103 ft | 264 kts | 213° |
| 2026-04-11 15:25 | 5.52902 | -55.35133 | 3792 ft | 268 kts | 204° |
| 2026-04-11 15:26 | 5.51196 | -55.35836 | 3638 ft | 260 kts | 196° |
| 2026-04-11 15:26 | 5.49488 | -55.36303 | 3489 ft | 250 kts | 190° |
| 2026-04-11 15:26 | 5.47825 | -55.36446 | 3333 ft | 231 kts | 166° |
| 2026-04-11 15:26 | 5.46448 | -55.35776 | 3097 ft | 215 kts | 131° |
| 2026-04-11 15:27 | 5.45821 | -55.34719 | 2972 ft | 201 kts | 107° |
| 2026-04-11 15:27 | 5.45652 | -55.34122 | 2824 ft | 200 kts | 104° |
| 2026-04-11 15:27 | 5.45396 | -55.32692 | 2493 ft | 196 kts | 96° |
| 2026-04-11 15:27 | 5.45262 | -55.31425 | 2216 ft | 187 kts | 94° |
| 2026-04-11 15:28 | 5.45221 | -55.30184 | 2164 ft | 170 kts | 90° |
| 2026-04-11 15:28 | 5.45223 | -55.29018 | 2075 ft | 165 kts | 90° |
| 2026-04-11 15:28 | 5.45231 | -55.27866 | 2036 ft | 167 kts | 88° |
| 2026-04-11 15:28 | 5.45270 | -55.26669 | 1811 ft | 172 kts | 86° |
| 2026-04-11 15:29 | 5.45337 | -55.25581 | 1409 ft | 165 kts | 85° |
| 2026-04-11 15:29 | 5.45398 | -55.24606 | 990 ft | 157 kts | 87° |
| 2026-04-11 15:29 | 5.45359 | -55.23639 | 661 ft | 141 kts | 91° |
| 2026-04-11 15:29 | 5.45291 | -55.22688 | 440 ft | 135 kts | 87° |
| 2026-04-11 15:30 | 5.45266 | -55.21742 | 277 ft | 133 kts | 86° |
| 2026-04-11 15:30 | 5.45284 | -55.20852 | 228 ft | 140 kts | 83° |
| 2026-04-11 15:30 | 5.45284 | -55.19886 | 62 ft | 131 kts | 85° |
| 2026-04-11 15:30 | 5.45291 | -55.19119 | 64 ft | 84 kts | 90° |
| 2026-04-11 15:31 | 5.45293 | -55.18717 | 59 ft | 34 kts | 89° |
| 2026-04-11 15:31 | 5.45318 | -55.18602 | 56 ft | 9 kts | 125° |
| 2026-04-11 15:31 | 5.45297 | -55.18610 | 55 ft | 8 kts | 233° |
| 2026-04-11 15:31 | 5.45291 | -55.18733 | 59 ft | 21 kts | 271° |
| 2026-04-11 15:32 | 5.45290 | -55.18877 | 62 ft | 21 kts | 269° |
| 2026-04-11 15:32 | 5.45287 | -55.19020 | 64 ft | 21 kts | 269° |
| 2026-04-11 15:32 | 5.45286 | -55.19167 | 60 ft | 22 kts | 269° |
| 2026-04-11 15:32 | 5.45286 | -55.19321 | 61 ft | 22 kts | 270° |
| 2026-04-11 15:33 | 5.45285 | -55.19478 | 63 ft | 22 kts | 269° |
| 2026-04-11 15:33 | 5.45284 | -55.19634 | 60 ft | 22 kts | 269° |
| 2026-04-11 15:33 | 5.45337 | -55.19730 | 62 ft | 19 kts | 339° |
| 2026-04-11 15:33 | 5.45393 | -55.19744 | 60 ft | 19 kts | 347° |
| 2026-04-11 15:34 | 5.45485 | -55.19805 | 59 ft | 14 kts | 339° |
| 2026-04-11 15:34 | 5.45529 | -55.19810 | 56 ft | 0 kts | 13° |
| 2026-04-11 15:35 | 5.45517 | -55.19975 | 60 ft | 0 kts | 355° |